<?xml version="1.0" encoding="UTF-8" standalone="no" ?>
<gpx xmlns="http://www.topografix.com/GPX/1/1" xmlns:xsi="http://www.w3.org/2001/XMLSchema-instance" xsi:schemaLocation="http://www.topografix.com/GPX/1/1 http://www.topografix.com/GPX/1/1/gpx.xsd" version="1.1" creator="VisuGPX - https://www.visugpx.com">
  <metadata>
    <name>Momas</name>
    <desc><![CDATA[10 km dans la campagne à proximité de Pau, en commençant par la bordure du lac d\'Ayguelongue, toujours très attractive. Ce circuit comporte de nombreux chemins de terre, mais aussi pas mal de routes goudronnées. Le village de Momas, son point de vue, méritent cependant la promenade.]]></desc>
  </metadata>
  <trk>
    <name><![CDATA[Tracé actuel: 27 MARS 2012 14:26]]></name>
    <trkseg>
      <trkpt lat="43.41916" lon="-0.45995">
        <ele>157.31</ele>
        <time>2012-03-27T12:26:06Z</time>
      </trkpt>
      <trkpt lat="43.41894" lon="-0.45977">
        <ele>152.03</ele>
        <time>2012-03-27T12:27:21Z</time>
      </trkpt>
      <trkpt lat="43.41902" lon="-0.45956">
        <ele>152.51</ele>
        <time>2012-03-27T12:29:15Z</time>
      </trkpt>
      <trkpt lat="43.41907" lon="-0.45944">
        <ele>152.51</ele>
        <time>2012-03-27T12:29:26Z</time>
      </trkpt>
      <trkpt lat="43.41912" lon="-0.45931">
        <ele>152.51</ele>
        <time>2012-03-27T12:29:37Z</time>
      </trkpt>
      <trkpt lat="43.41919" lon="-0.45917">
        <ele>152.03</ele>
        <time>2012-03-27T12:29:48Z</time>
      </trkpt>
      <trkpt lat="43.41924" lon="-0.45903">
        <ele>152.03</ele>
        <time>2012-03-27T12:30:00Z</time>
      </trkpt>
      <trkpt lat="43.41932" lon="-0.45891">
        <ele>152.99</ele>
        <time>2012-03-27T12:30:11Z</time>
      </trkpt>
      <trkpt lat="43.4194" lon="-0.45879">
        <ele>152.51</ele>
        <time>2012-03-27T12:30:22Z</time>
      </trkpt>
      <trkpt lat="43.41944" lon="-0.45865">
        <ele>152.03</ele>
        <time>2012-03-27T12:30:41Z</time>
      </trkpt>
      <trkpt lat="43.41948" lon="-0.45852">
        <ele>152.51</ele>
        <time>2012-03-27T12:30:57Z</time>
      </trkpt>
      <trkpt lat="43.41956" lon="-0.45837">
        <ele>151.54</ele>
        <time>2012-03-27T12:31:07Z</time>
      </trkpt>
      <trkpt lat="43.41963" lon="-0.45824">
        <ele>152.03</ele>
        <time>2012-03-27T12:31:16Z</time>
      </trkpt>
      <trkpt lat="43.41969" lon="-0.45811">
        <ele>151.54</ele>
        <time>2012-03-27T12:31:26Z</time>
      </trkpt>
      <trkpt lat="43.41978" lon="-0.45799">
        <ele>152.03</ele>
        <time>2012-03-27T12:31:37Z</time>
      </trkpt>
      <trkpt lat="43.41985" lon="-0.45787">
        <ele>151.54</ele>
        <time>2012-03-27T12:31:48Z</time>
      </trkpt>
      <trkpt lat="43.41994" lon="-0.45772">
        <ele>151.54</ele>
        <time>2012-03-27T12:32:01Z</time>
      </trkpt>
      <trkpt lat="43.42004" lon="-0.4576">
        <ele>151.54</ele>
        <time>2012-03-27T12:32:14Z</time>
      </trkpt>
      <trkpt lat="43.42016" lon="-0.45749">
        <ele>152.03</ele>
        <time>2012-03-27T12:32:28Z</time>
      </trkpt>
      <trkpt lat="43.42027" lon="-0.45739">
        <ele>151.54</ele>
        <time>2012-03-27T12:32:39Z</time>
      </trkpt>
      <trkpt lat="43.4204" lon="-0.45739">
        <ele>151.06</ele>
        <time>2012-03-27T12:32:51Z</time>
      </trkpt>
      <trkpt lat="43.42051" lon="-0.45737">
        <ele>150.1</ele>
        <time>2012-03-27T12:33:01Z</time>
      </trkpt>
      <trkpt lat="43.42061" lon="-0.4574">
        <ele>150.58</ele>
        <time>2012-03-27T12:33:09Z</time>
      </trkpt>
      <trkpt lat="43.42068" lon="-0.45747">
        <ele>150.58</ele>
        <time>2012-03-27T12:33:17Z</time>
      </trkpt>
      <trkpt lat="43.42074" lon="-0.4576">
        <ele>150.58</ele>
        <time>2012-03-27T12:33:26Z</time>
      </trkpt>
      <trkpt lat="43.42077" lon="-0.45774">
        <ele>150.58</ele>
        <time>2012-03-27T12:33:34Z</time>
      </trkpt>
      <trkpt lat="43.4208" lon="-0.45787">
        <ele>150.58</ele>
        <time>2012-03-27T12:33:42Z</time>
      </trkpt>
      <trkpt lat="43.42082" lon="-0.458">
        <ele>149.62</ele>
        <time>2012-03-27T12:33:50Z</time>
      </trkpt>
      <trkpt lat="43.42084" lon="-0.45813">
        <ele>150.1</ele>
        <time>2012-03-27T12:33:59Z</time>
      </trkpt>
      <trkpt lat="43.42089" lon="-0.45826">
        <ele>150.58</ele>
        <time>2012-03-27T12:34:07Z</time>
      </trkpt>
      <trkpt lat="43.42096" lon="-0.45835">
        <ele>150.1</ele>
        <time>2012-03-27T12:34:15Z</time>
      </trkpt>
      <trkpt lat="43.42104" lon="-0.45843">
        <ele>150.58</ele>
        <time>2012-03-27T12:34:23Z</time>
      </trkpt>
      <trkpt lat="43.42112" lon="-0.45851">
        <ele>150.58</ele>
        <time>2012-03-27T12:34:31Z</time>
      </trkpt>
      <trkpt lat="43.4212" lon="-0.45859">
        <ele>150.58</ele>
        <time>2012-03-27T12:34:39Z</time>
      </trkpt>
      <trkpt lat="43.4213" lon="-0.45864">
        <ele>150.58</ele>
        <time>2012-03-27T12:34:47Z</time>
      </trkpt>
      <trkpt lat="43.42137" lon="-0.45871">
        <ele>150.58</ele>
        <time>2012-03-27T12:34:55Z</time>
      </trkpt>
      <trkpt lat="43.42146" lon="-0.45877">
        <ele>151.54</ele>
        <time>2012-03-27T12:35:03Z</time>
      </trkpt>
      <trkpt lat="43.42155" lon="-0.45883">
        <ele>151.06</ele>
        <time>2012-03-27T12:35:11Z</time>
      </trkpt>
      <trkpt lat="43.42165" lon="-0.45886">
        <ele>151.06</ele>
        <time>2012-03-27T12:35:20Z</time>
      </trkpt>
      <trkpt lat="43.42176" lon="-0.45888">
        <ele>151.06</ele>
        <time>2012-03-27T12:35:30Z</time>
      </trkpt>
      <trkpt lat="43.42187" lon="-0.45887">
        <ele>151.54</ele>
        <time>2012-03-27T12:35:40Z</time>
      </trkpt>
      <trkpt lat="43.42197" lon="-0.45884">
        <ele>151.06</ele>
        <time>2012-03-27T12:35:49Z</time>
      </trkpt>
      <trkpt lat="43.42211" lon="-0.45884">
        <ele>151.06</ele>
        <time>2012-03-27T12:35:59Z</time>
      </trkpt>
      <trkpt lat="43.42227" lon="-0.45884">
        <ele>151.06</ele>
        <time>2012-03-27T12:36:11Z</time>
      </trkpt>
      <trkpt lat="43.42242" lon="-0.45883">
        <ele>152.03</ele>
        <time>2012-03-27T12:36:22Z</time>
      </trkpt>
      <trkpt lat="43.42256" lon="-0.45882">
        <ele>151.54</ele>
        <time>2012-03-27T12:36:32Z</time>
      </trkpt>
      <trkpt lat="43.42269" lon="-0.45882">
        <ele>151.06</ele>
        <time>2012-03-27T12:36:42Z</time>
      </trkpt>
      <trkpt lat="43.42284" lon="-0.45881">
        <ele>151.06</ele>
        <time>2012-03-27T12:36:54Z</time>
      </trkpt>
      <trkpt lat="43.42299" lon="-0.45882">
        <ele>151.54</ele>
        <time>2012-03-27T12:37:06Z</time>
      </trkpt>
      <trkpt lat="43.42314" lon="-0.45883">
        <ele>151.54</ele>
        <time>2012-03-27T12:37:19Z</time>
      </trkpt>
      <trkpt lat="43.42328" lon="-0.45883">
        <ele>152.51</ele>
        <time>2012-03-27T12:37:28Z</time>
      </trkpt>
      <trkpt lat="43.42338" lon="-0.45885">
        <ele>152.51</ele>
        <time>2012-03-27T12:37:36Z</time>
      </trkpt>
      <trkpt lat="43.42348" lon="-0.45886">
        <ele>152.99</ele>
        <time>2012-03-27T12:37:44Z</time>
      </trkpt>
      <trkpt lat="43.42358" lon="-0.45887">
        <ele>152.99</ele>
        <time>2012-03-27T12:37:52Z</time>
      </trkpt>
      <trkpt lat="43.42368" lon="-0.45889">
        <ele>152.51</ele>
        <time>2012-03-27T12:38:00Z</time>
      </trkpt>
      <trkpt lat="43.42377" lon="-0.45892">
        <ele>152.51</ele>
        <time>2012-03-27T12:38:09Z</time>
      </trkpt>
      <trkpt lat="43.42387" lon="-0.45894">
        <ele>152.03</ele>
        <time>2012-03-27T12:38:18Z</time>
      </trkpt>
      <trkpt lat="43.42398" lon="-0.45897">
        <ele>152.99</ele>
        <time>2012-03-27T12:38:27Z</time>
      </trkpt>
      <trkpt lat="43.42407" lon="-0.459">
        <ele>153.47</ele>
        <time>2012-03-27T12:38:35Z</time>
      </trkpt>
      <trkpt lat="43.42417" lon="-0.45903">
        <ele>152.99</ele>
        <time>2012-03-27T12:38:43Z</time>
      </trkpt>
      <trkpt lat="43.42427" lon="-0.45907">
        <ele>152.99</ele>
        <time>2012-03-27T12:38:52Z</time>
      </trkpt>
      <trkpt lat="43.42436" lon="-0.45914">
        <ele>152.99</ele>
        <time>2012-03-27T12:39:01Z</time>
      </trkpt>
      <trkpt lat="43.42445" lon="-0.4592">
        <ele>152.99</ele>
        <time>2012-03-27T12:39:10Z</time>
      </trkpt>
      <trkpt lat="43.42455" lon="-0.45925">
        <ele>153.47</ele>
        <time>2012-03-27T12:39:19Z</time>
      </trkpt>
      <trkpt lat="43.42464" lon="-0.4593">
        <ele>154.43</ele>
        <time>2012-03-27T12:39:29Z</time>
      </trkpt>
      <trkpt lat="43.42476" lon="-0.45931">
        <ele>153.95</ele>
        <time>2012-03-27T12:39:39Z</time>
      </trkpt>
      <trkpt lat="43.42489" lon="-0.45929">
        <ele>153.95</ele>
        <time>2012-03-27T12:39:51Z</time>
      </trkpt>
      <trkpt lat="43.42502" lon="-0.45923">
        <ele>153.47</ele>
        <time>2012-03-27T12:40:03Z</time>
      </trkpt>
      <trkpt lat="43.42517" lon="-0.45915">
        <ele>153.47</ele>
        <time>2012-03-27T12:40:15Z</time>
      </trkpt>
      <trkpt lat="43.42533" lon="-0.45907">
        <ele>152.03</ele>
        <time>2012-03-27T12:40:28Z</time>
      </trkpt>
      <trkpt lat="43.42545" lon="-0.459">
        <ele>152.03</ele>
        <time>2012-03-27T12:40:38Z</time>
      </trkpt>
      <trkpt lat="43.4256" lon="-0.45893">
        <ele>151.06</ele>
        <time>2012-03-27T12:40:51Z</time>
      </trkpt>
      <trkpt lat="43.42575" lon="-0.45888">
        <ele>150.58</ele>
        <time>2012-03-27T12:41:04Z</time>
      </trkpt>
      <trkpt lat="43.42592" lon="-0.45883">
        <ele>150.1</ele>
        <time>2012-03-27T12:41:17Z</time>
      </trkpt>
      <trkpt lat="43.42608" lon="-0.45881">
        <ele>150.58</ele>
        <time>2012-03-27T12:41:28Z</time>
      </trkpt>
      <trkpt lat="43.42623" lon="-0.45882">
        <ele>150.58</ele>
        <time>2012-03-27T12:41:39Z</time>
      </trkpt>
      <trkpt lat="43.42637" lon="-0.45884">
        <ele>150.58</ele>
        <time>2012-03-27T12:41:50Z</time>
      </trkpt>
      <trkpt lat="43.42651" lon="-0.45885">
        <ele>150.1</ele>
        <time>2012-03-27T12:41:59Z</time>
      </trkpt>
      <trkpt lat="43.4266" lon="-0.45886">
        <ele>150.1</ele>
        <time>2012-03-27T12:42:07Z</time>
      </trkpt>
      <trkpt lat="43.42672" lon="-0.45891">
        <ele>151.06</ele>
        <time>2012-03-27T12:42:16Z</time>
      </trkpt>
      <trkpt lat="43.42681" lon="-0.45895">
        <ele>151.06</ele>
        <time>2012-03-27T12:42:24Z</time>
      </trkpt>
      <trkpt lat="43.42691" lon="-0.45897">
        <ele>151.06</ele>
        <time>2012-03-27T12:42:33Z</time>
      </trkpt>
      <trkpt lat="43.42702" lon="-0.45899">
        <ele>150.58</ele>
        <time>2012-03-27T12:42:42Z</time>
      </trkpt>
      <trkpt lat="43.42714" lon="-0.45904">
        <ele>150.1</ele>
        <time>2012-03-27T12:42:51Z</time>
      </trkpt>
      <trkpt lat="43.42725" lon="-0.45906">
        <ele>150.1</ele>
        <time>2012-03-27T12:42:59Z</time>
      </trkpt>
      <trkpt lat="43.42734" lon="-0.45908">
        <ele>150.58</ele>
        <time>2012-03-27T12:43:07Z</time>
      </trkpt>
      <trkpt lat="43.42744" lon="-0.45918">
        <ele>151.06</ele>
        <time>2012-03-27T12:43:18Z</time>
      </trkpt>
      <trkpt lat="43.42754" lon="-0.45925">
        <ele>151.06</ele>
        <time>2012-03-27T12:43:27Z</time>
      </trkpt>
      <trkpt lat="43.42764" lon="-0.45933">
        <ele>151.54</ele>
        <time>2012-03-27T12:43:36Z</time>
      </trkpt>
      <trkpt lat="43.42776" lon="-0.45938">
        <ele>151.54</ele>
        <time>2012-03-27T12:43:46Z</time>
      </trkpt>
      <trkpt lat="43.42788" lon="-0.45944">
        <ele>151.54</ele>
        <time>2012-03-27T12:43:55Z</time>
      </trkpt>
      <trkpt lat="43.42799" lon="-0.45948">
        <ele>151.54</ele>
        <time>2012-03-27T12:44:05Z</time>
      </trkpt>
      <trkpt lat="43.42812" lon="-0.45951">
        <ele>151.54</ele>
        <time>2012-03-27T12:44:16Z</time>
      </trkpt>
      <trkpt lat="43.42829" lon="-0.45951">
        <ele>151.54</ele>
        <time>2012-03-27T12:44:28Z</time>
      </trkpt>
      <trkpt lat="43.4284" lon="-0.4595">
        <ele>151.54</ele>
        <time>2012-03-27T12:44:37Z</time>
      </trkpt>
      <trkpt lat="43.42852" lon="-0.45948">
        <ele>151.54</ele>
        <time>2012-03-27T12:44:46Z</time>
      </trkpt>
      <trkpt lat="43.42863" lon="-0.45944">
        <ele>151.54</ele>
        <time>2012-03-27T12:44:55Z</time>
      </trkpt>
      <trkpt lat="43.42874" lon="-0.4595">
        <ele>152.03</ele>
        <time>2012-03-27T12:45:07Z</time>
      </trkpt>
      <trkpt lat="43.42885" lon="-0.45959">
        <ele>152.03</ele>
        <time>2012-03-27T12:45:18Z</time>
      </trkpt>
      <trkpt lat="43.42898" lon="-0.45958">
        <ele>152.03</ele>
        <time>2012-03-27T12:45:28Z</time>
      </trkpt>
      <trkpt lat="43.42906" lon="-0.45943">
        <ele>152.03</ele>
        <time>2012-03-27T12:45:39Z</time>
      </trkpt>
      <trkpt lat="43.4291" lon="-0.4593">
        <ele>152.03</ele>
        <time>2012-03-27T12:45:50Z</time>
      </trkpt>
      <trkpt lat="43.42921" lon="-0.45921">
        <ele>153.95</ele>
        <time>2012-03-27T12:46:01Z</time>
      </trkpt>
      <trkpt lat="43.42934" lon="-0.45919">
        <ele>153.47</ele>
        <time>2012-03-27T12:46:11Z</time>
      </trkpt>
      <trkpt lat="43.42946" lon="-0.4592">
        <ele>153.47</ele>
        <time>2012-03-27T12:46:20Z</time>
      </trkpt>
      <trkpt lat="43.42956" lon="-0.45923">
        <ele>153.95</ele>
        <time>2012-03-27T12:46:29Z</time>
      </trkpt>
      <trkpt lat="43.42967" lon="-0.45925">
        <ele>153.95</ele>
        <time>2012-03-27T12:46:37Z</time>
      </trkpt>
      <trkpt lat="43.42977" lon="-0.45927">
        <ele>153.47</ele>
        <time>2012-03-27T12:46:46Z</time>
      </trkpt>
      <trkpt lat="43.42987" lon="-0.45931">
        <ele>152.03</ele>
        <time>2012-03-27T12:46:54Z</time>
      </trkpt>
      <trkpt lat="43.42997" lon="-0.45936">
        <ele>153.47</ele>
        <time>2012-03-27T12:47:03Z</time>
      </trkpt>
      <trkpt lat="43.43007" lon="-0.4594">
        <ele>152.99</ele>
        <time>2012-03-27T12:47:12Z</time>
      </trkpt>
      <trkpt lat="43.43016" lon="-0.45944">
        <ele>152.99</ele>
        <time>2012-03-27T12:47:22Z</time>
      </trkpt>
      <trkpt lat="43.43025" lon="-0.4595">
        <ele>153.47</ele>
        <time>2012-03-27T12:47:31Z</time>
      </trkpt>
      <trkpt lat="43.43035" lon="-0.45956">
        <ele>153.47</ele>
        <time>2012-03-27T12:47:39Z</time>
      </trkpt>
      <trkpt lat="43.43044" lon="-0.45961">
        <ele>153.47</ele>
        <time>2012-03-27T12:47:48Z</time>
      </trkpt>
      <trkpt lat="43.43054" lon="-0.45967">
        <ele>153.47</ele>
        <time>2012-03-27T12:47:56Z</time>
      </trkpt>
      <trkpt lat="43.43065" lon="-0.45973">
        <ele>152.99</ele>
        <time>2012-03-27T12:48:04Z</time>
      </trkpt>
      <trkpt lat="43.43075" lon="-0.45979">
        <ele>152.99</ele>
        <time>2012-03-27T12:48:12Z</time>
      </trkpt>
      <trkpt lat="43.43085" lon="-0.45984">
        <ele>152.99</ele>
        <time>2012-03-27T12:48:20Z</time>
      </trkpt>
      <trkpt lat="43.43096" lon="-0.45993">
        <ele>152.99</ele>
        <time>2012-03-27T12:48:29Z</time>
      </trkpt>
      <trkpt lat="43.43107" lon="-0.45996">
        <ele>152.99</ele>
        <time>2012-03-27T12:48:38Z</time>
      </trkpt>
      <trkpt lat="43.43116" lon="-0.46003">
        <ele>152.99</ele>
        <time>2012-03-27T12:51:10Z</time>
      </trkpt>
      <trkpt lat="43.43127" lon="-0.46008">
        <ele>153.47</ele>
        <time>2012-03-27T12:51:19Z</time>
      </trkpt>
      <trkpt lat="43.43137" lon="-0.46014">
        <ele>153.47</ele>
        <time>2012-03-27T12:51:28Z</time>
      </trkpt>
      <trkpt lat="43.43148" lon="-0.4602">
        <ele>153.47</ele>
        <time>2012-03-27T12:51:37Z</time>
      </trkpt>
      <trkpt lat="43.43158" lon="-0.46027">
        <ele>153.47</ele>
        <time>2012-03-27T12:51:47Z</time>
      </trkpt>
      <trkpt lat="43.43168" lon="-0.46033">
        <ele>153.95</ele>
        <time>2012-03-27T12:51:56Z</time>
      </trkpt>
      <trkpt lat="43.43177" lon="-0.46041">
        <ele>153.95</ele>
        <time>2012-03-27T12:52:05Z</time>
      </trkpt>
      <trkpt lat="43.43187" lon="-0.46049">
        <ele>153.95</ele>
        <time>2012-03-27T12:52:15Z</time>
      </trkpt>
      <trkpt lat="43.43198" lon="-0.46055">
        <ele>152.99</ele>
        <time>2012-03-27T12:52:24Z</time>
      </trkpt>
      <trkpt lat="43.43208" lon="-0.46062">
        <ele>153.47</ele>
        <time>2012-03-27T12:52:33Z</time>
      </trkpt>
      <trkpt lat="43.43217" lon="-0.46069">
        <ele>153.47</ele>
        <time>2012-03-27T12:52:42Z</time>
      </trkpt>
      <trkpt lat="43.43227" lon="-0.46075">
        <ele>153.47</ele>
        <time>2012-03-27T12:52:51Z</time>
      </trkpt>
      <trkpt lat="43.43235" lon="-0.46082">
        <ele>153.47</ele>
        <time>2012-03-27T12:52:59Z</time>
      </trkpt>
      <trkpt lat="43.43244" lon="-0.46089">
        <ele>153.47</ele>
        <time>2012-03-27T12:53:08Z</time>
      </trkpt>
      <trkpt lat="43.43252" lon="-0.46097">
        <ele>153.47</ele>
        <time>2012-03-27T12:53:17Z</time>
      </trkpt>
      <trkpt lat="43.43261" lon="-0.46102">
        <ele>153.47</ele>
        <time>2012-03-27T12:53:26Z</time>
      </trkpt>
      <trkpt lat="43.4327" lon="-0.4611">
        <ele>153.47</ele>
        <time>2012-03-27T12:53:35Z</time>
      </trkpt>
      <trkpt lat="43.43278" lon="-0.46116">
        <ele>153.47</ele>
        <time>2012-03-27T12:53:43Z</time>
      </trkpt>
      <trkpt lat="43.43287" lon="-0.46124">
        <ele>153.47</ele>
        <time>2012-03-27T12:53:51Z</time>
      </trkpt>
      <trkpt lat="43.43296" lon="-0.46131">
        <ele>152.99</ele>
        <time>2012-03-27T12:53:59Z</time>
      </trkpt>
      <trkpt lat="43.43305" lon="-0.4614">
        <ele>152.99</ele>
        <time>2012-03-27T12:54:08Z</time>
      </trkpt>
      <trkpt lat="43.43314" lon="-0.46148">
        <ele>153.47</ele>
        <time>2012-03-27T12:54:17Z</time>
      </trkpt>
      <trkpt lat="43.43322" lon="-0.46154">
        <ele>152.99</ele>
        <time>2012-03-27T12:54:25Z</time>
      </trkpt>
      <trkpt lat="43.4333" lon="-0.46163">
        <ele>152.99</ele>
        <time>2012-03-27T12:54:34Z</time>
      </trkpt>
      <trkpt lat="43.43339" lon="-0.4617">
        <ele>153.47</ele>
        <time>2012-03-27T12:54:43Z</time>
      </trkpt>
      <trkpt lat="43.43348" lon="-0.46177">
        <ele>153.47</ele>
        <time>2012-03-27T12:54:52Z</time>
      </trkpt>
      <trkpt lat="43.43356" lon="-0.46184">
        <ele>152.99</ele>
        <time>2012-03-27T12:55:11Z</time>
      </trkpt>
      <trkpt lat="43.43366" lon="-0.46191">
        <ele>153.47</ele>
        <time>2012-03-27T12:57:18Z</time>
      </trkpt>
      <trkpt lat="43.43375" lon="-0.46201">
        <ele>153.95</ele>
        <time>2012-03-27T12:57:31Z</time>
      </trkpt>
      <trkpt lat="43.43385" lon="-0.4621">
        <ele>154.43</ele>
        <time>2012-03-27T12:57:41Z</time>
      </trkpt>
      <trkpt lat="43.43394" lon="-0.46219">
        <ele>154.43</ele>
        <time>2012-03-27T12:57:54Z</time>
      </trkpt>
      <trkpt lat="43.43403" lon="-0.46224">
        <ele>154.43</ele>
        <time>2012-03-27T12:58:04Z</time>
      </trkpt>
      <trkpt lat="43.43406" lon="-0.46236">
        <ele>153.95</ele>
        <time>2012-03-27T12:58:15Z</time>
      </trkpt>
      <trkpt lat="43.434" lon="-0.46246">
        <ele>152.51</ele>
        <time>2012-03-27T12:58:24Z</time>
      </trkpt>
      <trkpt lat="43.43397" lon="-0.4626">
        <ele>151.06</ele>
        <time>2012-03-27T12:58:34Z</time>
      </trkpt>
      <trkpt lat="43.43403" lon="-0.46272">
        <ele>149.62</ele>
        <time>2012-03-27T12:58:45Z</time>
      </trkpt>
      <trkpt lat="43.43412" lon="-0.46278">
        <ele>148.18</ele>
        <time>2012-03-27T12:58:56Z</time>
      </trkpt>
      <trkpt lat="43.43424" lon="-0.46281">
        <ele>146.26</ele>
        <time>2012-03-27T12:59:04Z</time>
      </trkpt>
      <trkpt lat="43.43433" lon="-0.46286">
        <ele>144.82</ele>
        <time>2012-03-27T12:59:10Z</time>
      </trkpt>
      <trkpt lat="43.43433" lon="-0.46299">
        <ele>142.41</ele>
        <time>2012-03-27T12:59:17Z</time>
      </trkpt>
      <trkpt lat="43.43438" lon="-0.46312">
        <ele>140.49</ele>
        <time>2012-03-27T12:59:23Z</time>
      </trkpt>
      <trkpt lat="43.43446" lon="-0.46317">
        <ele>139.53</ele>
        <time>2012-03-27T12:59:33Z</time>
      </trkpt>
      <trkpt lat="43.43459" lon="-0.46312">
        <ele>140.01</ele>
        <time>2012-03-27T12:59:42Z</time>
      </trkpt>
      <trkpt lat="43.43469" lon="-0.46309">
        <ele>139.53</ele>
        <time>2012-03-27T12:59:51Z</time>
      </trkpt>
      <trkpt lat="43.43482" lon="-0.4631">
        <ele>139.53</ele>
        <time>2012-03-27T13:00:00Z</time>
      </trkpt>
      <trkpt lat="43.43496" lon="-0.46308">
        <ele>139.53</ele>
        <time>2012-03-27T13:00:10Z</time>
      </trkpt>
      <trkpt lat="43.43506" lon="-0.46304">
        <ele>139.05</ele>
        <time>2012-03-27T13:00:20Z</time>
      </trkpt>
      <trkpt lat="43.43518" lon="-0.46304">
        <ele>139.05</ele>
        <time>2012-03-27T13:00:31Z</time>
      </trkpt>
      <trkpt lat="43.43529" lon="-0.46307">
        <ele>139.05</ele>
        <time>2012-03-27T13:00:41Z</time>
      </trkpt>
      <trkpt lat="43.43541" lon="-0.4631">
        <ele>139.05</ele>
        <time>2012-03-27T13:00:49Z</time>
      </trkpt>
      <trkpt lat="43.43554" lon="-0.46314">
        <ele>138.57</ele>
        <time>2012-03-27T13:00:59Z</time>
      </trkpt>
      <trkpt lat="43.43566" lon="-0.46315">
        <ele>138.57</ele>
        <time>2012-03-27T13:01:10Z</time>
      </trkpt>
      <trkpt lat="43.43598" lon="-0.46302">
        <ele>138.57</ele>
        <time>2012-03-27T13:01:34Z</time>
      </trkpt>
      <trkpt lat="43.43618" lon="-0.46288">
        <ele>138.57</ele>
        <time>2012-03-27T13:01:45Z</time>
      </trkpt>
      <trkpt lat="43.43626" lon="-0.46281">
        <ele>138.57</ele>
        <time>2012-03-27T13:01:54Z</time>
      </trkpt>
      <trkpt lat="43.43636" lon="-0.46273">
        <ele>139.05</ele>
        <time>2012-03-27T13:02:04Z</time>
      </trkpt>
      <trkpt lat="43.43646" lon="-0.46265">
        <ele>140.01</ele>
        <time>2012-03-27T13:02:12Z</time>
      </trkpt>
      <trkpt lat="43.43655" lon="-0.46259">
        <ele>140.49</ele>
        <time>2012-03-27T13:02:22Z</time>
      </trkpt>
      <trkpt lat="43.43663" lon="-0.46249">
        <ele>141.45</ele>
        <time>2012-03-27T13:02:30Z</time>
      </trkpt>
      <trkpt lat="43.43676" lon="-0.46233">
        <ele>141.93</ele>
        <time>2012-03-27T13:02:42Z</time>
      </trkpt>
      <trkpt lat="43.43689" lon="-0.46216">
        <ele>141.93</ele>
        <time>2012-03-27T13:02:56Z</time>
      </trkpt>
      <trkpt lat="43.43698" lon="-0.46207">
        <ele>141.93</ele>
        <time>2012-03-27T13:03:06Z</time>
      </trkpt>
      <trkpt lat="43.43706" lon="-0.462">
        <ele>141.45</ele>
        <time>2012-03-27T13:03:15Z</time>
      </trkpt>
      <trkpt lat="43.43717" lon="-0.46192">
        <ele>140.97</ele>
        <time>2012-03-27T13:03:23Z</time>
      </trkpt>
      <trkpt lat="43.43729" lon="-0.46184">
        <ele>141.45</ele>
        <time>2012-03-27T13:03:33Z</time>
      </trkpt>
      <trkpt lat="43.43741" lon="-0.46181">
        <ele>140.97</ele>
        <time>2012-03-27T13:03:42Z</time>
      </trkpt>
      <trkpt lat="43.4375" lon="-0.46178">
        <ele>140.97</ele>
        <time>2012-03-27T13:03:49Z</time>
      </trkpt>
      <trkpt lat="43.43761" lon="-0.46174">
        <ele>140.97</ele>
        <time>2012-03-27T13:03:57Z</time>
      </trkpt>
      <trkpt lat="43.43771" lon="-0.46171">
        <ele>140.97</ele>
        <time>2012-03-27T13:04:04Z</time>
      </trkpt>
      <trkpt lat="43.43782" lon="-0.46163">
        <ele>140.49</ele>
        <time>2012-03-27T13:04:12Z</time>
      </trkpt>
      <trkpt lat="43.43788" lon="-0.46149">
        <ele>140.49</ele>
        <time>2012-03-27T13:04:22Z</time>
      </trkpt>
      <trkpt lat="43.43784" lon="-0.46124">
        <ele>140.01</ele>
        <time>2012-03-27T13:04:34Z</time>
      </trkpt>
      <trkpt lat="43.43782" lon="-0.46108">
        <ele>140.01</ele>
        <time>2012-03-27T13:04:43Z</time>
      </trkpt>
      <trkpt lat="43.43779" lon="-0.46088">
        <ele>139.05</ele>
        <time>2012-03-27T13:04:54Z</time>
      </trkpt>
      <trkpt lat="43.43778" lon="-0.46075">
        <ele>138.09</ele>
        <time>2012-03-27T13:05:04Z</time>
      </trkpt>
      <trkpt lat="43.43778" lon="-0.46062">
        <ele>138.09</ele>
        <time>2012-03-27T13:05:13Z</time>
      </trkpt>
      <trkpt lat="43.43774" lon="-0.46045">
        <ele>138.09</ele>
        <time>2012-03-27T13:05:23Z</time>
      </trkpt>
      <trkpt lat="43.4377" lon="-0.46027">
        <ele>138.09</ele>
        <time>2012-03-27T13:05:33Z</time>
      </trkpt>
      <trkpt lat="43.43773" lon="-0.46007">
        <ele>138.57</ele>
        <time>2012-03-27T13:05:43Z</time>
      </trkpt>
      <trkpt lat="43.43778" lon="-0.45995">
        <ele>136.64</ele>
        <time>2012-03-27T13:08:56Z</time>
      </trkpt>
      <trkpt lat="43.43786" lon="-0.45987">
        <ele>137.13</ele>
        <time>2012-03-27T13:09:07Z</time>
      </trkpt>
      <trkpt lat="43.43798" lon="-0.45993">
        <ele>136.64</ele>
        <time>2012-03-27T13:09:17Z</time>
      </trkpt>
      <trkpt lat="43.43811" lon="-0.46003">
        <ele>136.64</ele>
        <time>2012-03-27T13:09:27Z</time>
      </trkpt>
      <trkpt lat="43.43818" lon="-0.46016">
        <ele>136.64</ele>
        <time>2012-03-27T13:09:36Z</time>
      </trkpt>
      <trkpt lat="43.43828" lon="-0.46028">
        <ele>136.64</ele>
        <time>2012-03-27T13:09:46Z</time>
      </trkpt>
      <trkpt lat="43.43838" lon="-0.46041">
        <ele>136.16</ele>
        <time>2012-03-27T13:09:57Z</time>
      </trkpt>
      <trkpt lat="43.43848" lon="-0.46053">
        <ele>136.64</ele>
        <time>2012-03-27T13:10:09Z</time>
      </trkpt>
      <trkpt lat="43.43857" lon="-0.46064">
        <ele>136.16</ele>
        <time>2012-03-27T13:10:19Z</time>
      </trkpt>
      <trkpt lat="43.4387" lon="-0.46077">
        <ele>136.16</ele>
        <time>2012-03-27T13:10:30Z</time>
      </trkpt>
      <trkpt lat="43.43883" lon="-0.46079">
        <ele>136.64</ele>
        <time>2012-03-27T13:10:41Z</time>
      </trkpt>
      <trkpt lat="43.43894" lon="-0.46079">
        <ele>136.16</ele>
        <time>2012-03-27T13:10:52Z</time>
      </trkpt>
      <trkpt lat="43.43904" lon="-0.46078">
        <ele>136.16</ele>
        <time>2012-03-27T13:10:59Z</time>
      </trkpt>
      <trkpt lat="43.43919" lon="-0.46082">
        <ele>135.68</ele>
        <time>2012-03-27T13:11:09Z</time>
      </trkpt>
      <trkpt lat="43.43939" lon="-0.46088">
        <ele>135.68</ele>
        <time>2012-03-27T13:11:22Z</time>
      </trkpt>
      <trkpt lat="43.4395" lon="-0.46092">
        <ele>135.2</ele>
        <time>2012-03-27T13:11:31Z</time>
      </trkpt>
      <trkpt lat="43.43962" lon="-0.46091">
        <ele>134.72</ele>
        <time>2012-03-27T13:11:40Z</time>
      </trkpt>
      <trkpt lat="43.43973" lon="-0.46086">
        <ele>135.2</ele>
        <time>2012-03-27T13:11:48Z</time>
      </trkpt>
      <trkpt lat="43.43986" lon="-0.46077">
        <ele>134.72</ele>
        <time>2012-03-27T13:12:02Z</time>
      </trkpt>
      <trkpt lat="43.44002" lon="-0.46067">
        <ele>133.76</ele>
        <time>2012-03-27T13:12:13Z</time>
      </trkpt>
      <trkpt lat="43.44014" lon="-0.46055">
        <ele>133.76</ele>
        <time>2012-03-27T13:12:21Z</time>
      </trkpt>
      <trkpt lat="43.44023" lon="-0.46043">
        <ele>134.24</ele>
        <time>2012-03-27T13:12:29Z</time>
      </trkpt>
      <trkpt lat="43.44032" lon="-0.46033">
        <ele>134.24</ele>
        <time>2012-03-27T13:12:37Z</time>
      </trkpt>
      <trkpt lat="43.44039" lon="-0.46024">
        <ele>134.24</ele>
        <time>2012-03-27T13:12:44Z</time>
      </trkpt>
      <trkpt lat="43.44047" lon="-0.46016">
        <ele>134.24</ele>
        <time>2012-03-27T13:12:52Z</time>
      </trkpt>
      <trkpt lat="43.44054" lon="-0.46006">
        <ele>134.24</ele>
        <time>2012-03-27T13:13:00Z</time>
      </trkpt>
      <trkpt lat="43.44057" lon="-0.45993">
        <ele>134.24</ele>
        <time>2012-03-27T13:13:08Z</time>
      </trkpt>
      <trkpt lat="43.44051" lon="-0.45977">
        <ele>135.68</ele>
        <time>2012-03-27T13:13:18Z</time>
      </trkpt>
      <trkpt lat="43.44042" lon="-0.45966">
        <ele>136.16</ele>
        <time>2012-03-27T13:14:48Z</time>
      </trkpt>
      <trkpt lat="43.44039" lon="-0.45955">
        <ele>136.16</ele>
        <time>2012-03-27T13:14:58Z</time>
      </trkpt>
      <trkpt lat="43.44042" lon="-0.45943">
        <ele>135.2</ele>
        <time>2012-03-27T13:15:07Z</time>
      </trkpt>
      <trkpt lat="43.44047" lon="-0.45931">
        <ele>134.72</ele>
        <time>2012-03-27T13:15:16Z</time>
      </trkpt>
      <trkpt lat="43.44053" lon="-0.4592">
        <ele>135.2</ele>
        <time>2012-03-27T13:15:26Z</time>
      </trkpt>
      <trkpt lat="43.4406" lon="-0.45908">
        <ele>135.2</ele>
        <time>2012-03-27T13:15:37Z</time>
      </trkpt>
      <trkpt lat="43.44062" lon="-0.45892">
        <ele>135.68</ele>
        <time>2012-03-27T13:15:45Z</time>
      </trkpt>
      <trkpt lat="43.4406" lon="-0.45874">
        <ele>135.68</ele>
        <time>2012-03-27T13:15:55Z</time>
      </trkpt>
      <trkpt lat="43.44059" lon="-0.45861">
        <ele>135.68</ele>
        <time>2012-03-27T13:16:04Z</time>
      </trkpt>
      <trkpt lat="43.4406" lon="-0.45846">
        <ele>136.16</ele>
        <time>2012-03-27T13:16:15Z</time>
      </trkpt>
      <trkpt lat="43.44063" lon="-0.45832">
        <ele>135.68</ele>
        <time>2012-03-27T13:16:42Z</time>
      </trkpt>
      <trkpt lat="43.44067" lon="-0.45819">
        <ele>135.68</ele>
        <time>2012-03-27T13:16:52Z</time>
      </trkpt>
      <trkpt lat="43.44072" lon="-0.45808">
        <ele>136.64</ele>
        <time>2012-03-27T13:17:01Z</time>
      </trkpt>
      <trkpt lat="43.44078" lon="-0.45796">
        <ele>137.13</ele>
        <time>2012-03-27T13:17:11Z</time>
      </trkpt>
      <trkpt lat="43.44083" lon="-0.45784">
        <ele>137.61</ele>
        <time>2012-03-27T13:17:23Z</time>
      </trkpt>
      <trkpt lat="43.44088" lon="-0.45774">
        <ele>137.61</ele>
        <time>2012-03-27T13:17:32Z</time>
      </trkpt>
      <trkpt lat="43.44093" lon="-0.45762">
        <ele>138.09</ele>
        <time>2012-03-27T13:17:41Z</time>
      </trkpt>
      <trkpt lat="43.44098" lon="-0.45751">
        <ele>139.05</ele>
        <time>2012-03-27T13:17:50Z</time>
      </trkpt>
      <trkpt lat="43.44106" lon="-0.45743">
        <ele>139.05</ele>
        <time>2012-03-27T13:17:59Z</time>
      </trkpt>
      <trkpt lat="43.4411" lon="-0.45731">
        <ele>139.05</ele>
        <time>2012-03-27T13:18:08Z</time>
      </trkpt>
      <trkpt lat="43.44117" lon="-0.45719">
        <ele>139.53</ele>
        <time>2012-03-27T13:18:17Z</time>
      </trkpt>
      <trkpt lat="43.44123" lon="-0.45707">
        <ele>140.49</ele>
        <time>2012-03-27T13:18:27Z</time>
      </trkpt>
      <trkpt lat="43.44129" lon="-0.45696">
        <ele>140.49</ele>
        <time>2012-03-27T13:18:37Z</time>
      </trkpt>
      <trkpt lat="43.44134" lon="-0.45684">
        <ele>140.97</ele>
        <time>2012-03-27T13:18:47Z</time>
      </trkpt>
      <trkpt lat="43.4414" lon="-0.45673">
        <ele>140.97</ele>
        <time>2012-03-27T13:18:57Z</time>
      </trkpt>
      <trkpt lat="43.44147" lon="-0.45661">
        <ele>140.49</ele>
        <time>2012-03-27T13:19:06Z</time>
      </trkpt>
      <trkpt lat="43.44154" lon="-0.4565">
        <ele>140.49</ele>
        <time>2012-03-27T13:19:16Z</time>
      </trkpt>
      <trkpt lat="43.44161" lon="-0.4564">
        <ele>140.97</ele>
        <time>2012-03-27T13:19:26Z</time>
      </trkpt>
      <trkpt lat="43.44166" lon="-0.45631">
        <ele>141.45</ele>
        <time>2012-03-27T13:19:34Z</time>
      </trkpt>
      <trkpt lat="43.44173" lon="-0.45622">
        <ele>141.45</ele>
        <time>2012-03-27T13:19:44Z</time>
      </trkpt>
      <trkpt lat="43.44181" lon="-0.45623">
        <ele>142.41</ele>
        <time>2012-03-27T13:19:53Z</time>
      </trkpt>
      <trkpt lat="43.44191" lon="-0.45626">
        <ele>142.41</ele>
        <time>2012-03-27T13:20:02Z</time>
      </trkpt>
      <trkpt lat="43.442" lon="-0.45628">
        <ele>142.89</ele>
        <time>2012-03-27T13:20:10Z</time>
      </trkpt>
      <trkpt lat="43.44212" lon="-0.45629">
        <ele>144.34</ele>
        <time>2012-03-27T13:20:18Z</time>
      </trkpt>
      <trkpt lat="43.44223" lon="-0.4563">
        <ele>145.3</ele>
        <time>2012-03-27T13:20:26Z</time>
      </trkpt>
      <trkpt lat="43.44234" lon="-0.4563">
        <ele>145.78</ele>
        <time>2012-03-27T13:20:34Z</time>
      </trkpt>
      <trkpt lat="43.44247" lon="-0.45625">
        <ele>147.22</ele>
        <time>2012-03-27T13:20:42Z</time>
      </trkpt>
      <trkpt lat="43.44257" lon="-0.45619">
        <ele>147.22</ele>
        <time>2012-03-27T13:20:49Z</time>
      </trkpt>
      <trkpt lat="43.44265" lon="-0.45613">
        <ele>148.66</ele>
        <time>2012-03-27T13:20:56Z</time>
      </trkpt>
      <trkpt lat="43.44273" lon="-0.45603">
        <ele>149.14</ele>
        <time>2012-03-27T13:21:04Z</time>
      </trkpt>
      <trkpt lat="43.4428" lon="-0.45593">
        <ele>149.62</ele>
        <time>2012-03-27T13:21:12Z</time>
      </trkpt>
      <trkpt lat="43.44284" lon="-0.45582">
        <ele>150.1</ele>
        <time>2012-03-27T13:21:20Z</time>
      </trkpt>
      <trkpt lat="43.44289" lon="-0.45571">
        <ele>151.06</ele>
        <time>2012-03-27T13:21:29Z</time>
      </trkpt>
      <trkpt lat="43.44292" lon="-0.45555">
        <ele>152.03</ele>
        <time>2012-03-27T13:21:38Z</time>
      </trkpt>
      <trkpt lat="43.44296" lon="-0.45542">
        <ele>152.03</ele>
        <time>2012-03-27T13:21:46Z</time>
      </trkpt>
      <trkpt lat="43.44301" lon="-0.4553">
        <ele>152.03</ele>
        <time>2012-03-27T13:21:54Z</time>
      </trkpt>
      <trkpt lat="43.44307" lon="-0.45519">
        <ele>152.03</ele>
        <time>2012-03-27T13:22:03Z</time>
      </trkpt>
      <trkpt lat="43.44315" lon="-0.45508">
        <ele>152.51</ele>
        <time>2012-03-27T13:22:12Z</time>
      </trkpt>
      <trkpt lat="43.44323" lon="-0.45499">
        <ele>152.51</ele>
        <time>2012-03-27T13:22:21Z</time>
      </trkpt>
      <trkpt lat="43.44329" lon="-0.45489">
        <ele>152.51</ele>
        <time>2012-03-27T13:22:29Z</time>
      </trkpt>
      <trkpt lat="43.44338" lon="-0.45478">
        <ele>153.47</ele>
        <time>2012-03-27T13:22:38Z</time>
      </trkpt>
      <trkpt lat="43.44344" lon="-0.45467">
        <ele>153.95</ele>
        <time>2012-03-27T13:22:47Z</time>
      </trkpt>
      <trkpt lat="43.44352" lon="-0.45457">
        <ele>154.43</ele>
        <time>2012-03-27T13:22:56Z</time>
      </trkpt>
      <trkpt lat="43.4436" lon="-0.45445">
        <ele>155.39</ele>
        <time>2012-03-27T13:23:06Z</time>
      </trkpt>
      <trkpt lat="43.44366" lon="-0.45436">
        <ele>153.95</ele>
        <time>2012-03-27T13:23:14Z</time>
      </trkpt>
      <trkpt lat="43.44371" lon="-0.45425">
        <ele>154.91</ele>
        <time>2012-03-27T13:23:23Z</time>
      </trkpt>
      <trkpt lat="43.44378" lon="-0.45414">
        <ele>155.39</ele>
        <time>2012-03-27T13:23:32Z</time>
      </trkpt>
      <trkpt lat="43.44384" lon="-0.45404">
        <ele>155.39</ele>
        <time>2012-03-27T13:23:41Z</time>
      </trkpt>
      <trkpt lat="43.44393" lon="-0.45394">
        <ele>155.39</ele>
        <time>2012-03-27T13:23:51Z</time>
      </trkpt>
      <trkpt lat="43.44404" lon="-0.45385">
        <ele>155.39</ele>
        <time>2012-03-27T13:24:00Z</time>
      </trkpt>
      <trkpt lat="43.44415" lon="-0.45377">
        <ele>155.87</ele>
        <time>2012-03-27T13:24:08Z</time>
      </trkpt>
      <trkpt lat="43.44422" lon="-0.45368">
        <ele>156.35</ele>
        <time>2012-03-27T13:24:16Z</time>
      </trkpt>
      <trkpt lat="43.44429" lon="-0.45358">
        <ele>156.35</ele>
        <time>2012-03-27T13:24:27Z</time>
      </trkpt>
      <trkpt lat="43.44432" lon="-0.45344">
        <ele>157.79</ele>
        <time>2012-03-27T13:24:36Z</time>
      </trkpt>
      <trkpt lat="43.44435" lon="-0.45333">
        <ele>157.31</ele>
        <time>2012-03-27T13:24:44Z</time>
      </trkpt>
      <trkpt lat="43.44439" lon="-0.45321">
        <ele>157.79</ele>
        <time>2012-03-27T13:26:29Z</time>
      </trkpt>
      <trkpt lat="43.44444" lon="-0.4531">
        <ele>157.79</ele>
        <time>2012-03-27T13:26:38Z</time>
      </trkpt>
      <trkpt lat="43.44448" lon="-0.45297">
        <ele>158.27</ele>
        <time>2012-03-27T13:26:47Z</time>
      </trkpt>
      <trkpt lat="43.44451" lon="-0.45283">
        <ele>158.75</ele>
        <time>2012-03-27T13:26:56Z</time>
      </trkpt>
      <trkpt lat="43.44455" lon="-0.45271">
        <ele>159.24</ele>
        <time>2012-03-27T13:27:04Z</time>
      </trkpt>
      <trkpt lat="43.44458" lon="-0.45259">
        <ele>158.27</ele>
        <time>2012-03-27T13:27:12Z</time>
      </trkpt>
      <trkpt lat="43.4446" lon="-0.45246">
        <ele>159.24</ele>
        <time>2012-03-27T13:27:20Z</time>
      </trkpt>
      <trkpt lat="43.44463" lon="-0.45232">
        <ele>158.75</ele>
        <time>2012-03-27T13:27:28Z</time>
      </trkpt>
      <trkpt lat="43.44465" lon="-0.45222">
        <ele>159.24</ele>
        <time>2012-03-27T13:27:36Z</time>
      </trkpt>
      <trkpt lat="43.44468" lon="-0.4521">
        <ele>159.24</ele>
        <time>2012-03-27T13:27:44Z</time>
      </trkpt>
      <trkpt lat="43.44471" lon="-0.45196">
        <ele>159.24</ele>
        <time>2012-03-27T13:27:53Z</time>
      </trkpt>
      <trkpt lat="43.44474" lon="-0.45184">
        <ele>160.2</ele>
        <time>2012-03-27T13:28:02Z</time>
      </trkpt>
      <trkpt lat="43.44477" lon="-0.4517">
        <ele>160.2</ele>
        <time>2012-03-27T13:28:15Z</time>
      </trkpt>
      <trkpt lat="43.44484" lon="-0.45159">
        <ele>160.2</ele>
        <time>2012-03-27T13:28:25Z</time>
      </trkpt>
      <trkpt lat="43.44492" lon="-0.4515">
        <ele>160.68</ele>
        <time>2012-03-27T13:28:36Z</time>
      </trkpt>
      <trkpt lat="43.44501" lon="-0.45146">
        <ele>160.68</ele>
        <time>2012-03-27T13:28:48Z</time>
      </trkpt>
      <trkpt lat="43.4451" lon="-0.45139">
        <ele>160.68</ele>
        <time>2012-03-27T13:29:03Z</time>
      </trkpt>
      <trkpt lat="43.44517" lon="-0.4513">
        <ele>160.68</ele>
        <time>2012-03-27T13:29:12Z</time>
      </trkpt>
      <trkpt lat="43.44526" lon="-0.45119">
        <ele>160.68</ele>
        <time>2012-03-27T13:29:20Z</time>
      </trkpt>
      <trkpt lat="43.44532" lon="-0.4511">
        <ele>161.16</ele>
        <time>2012-03-27T13:29:28Z</time>
      </trkpt>
      <trkpt lat="43.44541" lon="-0.45101">
        <ele>161.16</ele>
        <time>2012-03-27T13:29:36Z</time>
      </trkpt>
      <trkpt lat="43.44547" lon="-0.45091">
        <ele>161.16</ele>
        <time>2012-03-27T13:29:44Z</time>
      </trkpt>
      <trkpt lat="43.44555" lon="-0.45082">
        <ele>161.16</ele>
        <time>2012-03-27T13:29:52Z</time>
      </trkpt>
      <trkpt lat="43.44562" lon="-0.45075">
        <ele>161.16</ele>
        <time>2012-03-27T13:30:04Z</time>
      </trkpt>
      <trkpt lat="43.44571" lon="-0.45065">
        <ele>162.12</ele>
        <time>2012-03-27T13:30:13Z</time>
      </trkpt>
      <trkpt lat="43.4458" lon="-0.45056">
        <ele>161.16</ele>
        <time>2012-03-27T13:30:21Z</time>
      </trkpt>
      <trkpt lat="43.44589" lon="-0.45047">
        <ele>161.64</ele>
        <time>2012-03-27T13:30:29Z</time>
      </trkpt>
      <trkpt lat="43.44596" lon="-0.45038">
        <ele>161.64</ele>
        <time>2012-03-27T13:30:37Z</time>
      </trkpt>
      <trkpt lat="43.44603" lon="-0.4503">
        <ele>162.12</ele>
        <time>2012-03-27T13:30:45Z</time>
      </trkpt>
      <trkpt lat="43.44614" lon="-0.4502">
        <ele>162.12</ele>
        <time>2012-03-27T13:30:55Z</time>
      </trkpt>
      <trkpt lat="43.44624" lon="-0.45013">
        <ele>162.6</ele>
        <time>2012-03-27T13:31:04Z</time>
      </trkpt>
      <trkpt lat="43.44634" lon="-0.45005">
        <ele>162.6</ele>
        <time>2012-03-27T13:31:12Z</time>
      </trkpt>
      <trkpt lat="43.44642" lon="-0.44996">
        <ele>163.08</ele>
        <time>2012-03-27T13:31:20Z</time>
      </trkpt>
      <trkpt lat="43.44651" lon="-0.44987">
        <ele>162.6</ele>
        <time>2012-03-27T13:31:30Z</time>
      </trkpt>
      <trkpt lat="43.44658" lon="-0.44979">
        <ele>162.12</ele>
        <time>2012-03-27T13:31:39Z</time>
      </trkpt>
      <trkpt lat="43.44665" lon="-0.4497">
        <ele>160.68</ele>
        <time>2012-03-27T13:31:49Z</time>
      </trkpt>
      <trkpt lat="43.44677" lon="-0.44962">
        <ele>160.2</ele>
        <time>2012-03-27T13:31:58Z</time>
      </trkpt>
      <trkpt lat="43.44685" lon="-0.44957">
        <ele>159.72</ele>
        <time>2012-03-27T13:32:06Z</time>
      </trkpt>
      <trkpt lat="43.44695" lon="-0.44951">
        <ele>159.24</ele>
        <time>2012-03-27T13:32:15Z</time>
      </trkpt>
      <trkpt lat="43.44704" lon="-0.44944">
        <ele>159.24</ele>
        <time>2012-03-27T13:32:24Z</time>
      </trkpt>
      <trkpt lat="43.44713" lon="-0.44935">
        <ele>158.75</ele>
        <time>2012-03-27T13:32:34Z</time>
      </trkpt>
      <trkpt lat="43.4473" lon="-0.44927">
        <ele>158.75</ele>
        <time>2012-03-27T13:32:44Z</time>
      </trkpt>
      <trkpt lat="43.44741" lon="-0.44919">
        <ele>159.72</ele>
        <time>2012-03-27T13:32:54Z</time>
      </trkpt>
      <trkpt lat="43.44749" lon="-0.44911">
        <ele>159.24</ele>
        <time>2012-03-27T13:33:04Z</time>
      </trkpt>
      <trkpt lat="43.4476" lon="-0.44906">
        <ele>159.24</ele>
        <time>2012-03-27T13:33:12Z</time>
      </trkpt>
      <trkpt lat="43.44769" lon="-0.449">
        <ele>159.72</ele>
        <time>2012-03-27T13:33:19Z</time>
      </trkpt>
      <trkpt lat="43.44778" lon="-0.44892">
        <ele>159.24</ele>
        <time>2012-03-27T13:33:27Z</time>
      </trkpt>
      <trkpt lat="43.44785" lon="-0.44883">
        <ele>159.24</ele>
        <time>2012-03-27T13:33:35Z</time>
      </trkpt>
      <trkpt lat="43.44791" lon="-0.44872">
        <ele>160.2</ele>
        <time>2012-03-27T13:33:43Z</time>
      </trkpt>
      <trkpt lat="43.44796" lon="-0.44861">
        <ele>161.64</ele>
        <time>2012-03-27T13:33:51Z</time>
      </trkpt>
      <trkpt lat="43.44801" lon="-0.44851">
        <ele>162.6</ele>
        <time>2012-03-27T13:33:59Z</time>
      </trkpt>
      <trkpt lat="43.44808" lon="-0.4484">
        <ele>163.56</ele>
        <time>2012-03-27T13:34:08Z</time>
      </trkpt>
      <trkpt lat="43.44817" lon="-0.44827">
        <ele>165</ele>
        <time>2012-03-27T13:34:18Z</time>
      </trkpt>
      <trkpt lat="43.4482" lon="-0.44815">
        <ele>165.96</ele>
        <time>2012-03-27T13:34:27Z</time>
      </trkpt>
      <trkpt lat="43.44829" lon="-0.4481">
        <ele>166.93</ele>
        <time>2012-03-27T13:35:12Z</time>
      </trkpt>
      <trkpt lat="43.44839" lon="-0.44805">
        <ele>168.37</ele>
        <time>2012-03-27T13:35:23Z</time>
      </trkpt>
      <trkpt lat="43.44851" lon="-0.448">
        <ele>168.37</ele>
        <time>2012-03-27T13:35:33Z</time>
      </trkpt>
      <trkpt lat="43.44861" lon="-0.44792">
        <ele>168.85</ele>
        <time>2012-03-27T13:35:43Z</time>
      </trkpt>
      <trkpt lat="43.4487" lon="-0.44786">
        <ele>169.81</ele>
        <time>2012-03-27T13:35:52Z</time>
      </trkpt>
      <trkpt lat="43.44878" lon="-0.44779">
        <ele>170.29</ele>
        <time>2012-03-27T13:36:02Z</time>
      </trkpt>
      <trkpt lat="43.44888" lon="-0.44774">
        <ele>171.25</ele>
        <time>2012-03-27T13:36:11Z</time>
      </trkpt>
      <trkpt lat="43.44896" lon="-0.44766">
        <ele>172.21</ele>
        <time>2012-03-27T13:36:20Z</time>
      </trkpt>
      <trkpt lat="43.44904" lon="-0.44757">
        <ele>172.21</ele>
        <time>2012-03-27T13:36:28Z</time>
      </trkpt>
      <trkpt lat="43.44911" lon="-0.44748">
        <ele>173.17</ele>
        <time>2012-03-27T13:36:37Z</time>
      </trkpt>
      <trkpt lat="43.44919" lon="-0.44739">
        <ele>173.66</ele>
        <time>2012-03-27T13:36:46Z</time>
      </trkpt>
      <trkpt lat="43.44928" lon="-0.44729">
        <ele>173.66</ele>
        <time>2012-03-27T13:36:56Z</time>
      </trkpt>
      <trkpt lat="43.44937" lon="-0.4472">
        <ele>174.14</ele>
        <time>2012-03-27T13:37:05Z</time>
      </trkpt>
      <trkpt lat="43.44947" lon="-0.44712">
        <ele>174.62</ele>
        <time>2012-03-27T13:37:15Z</time>
      </trkpt>
      <trkpt lat="43.44952" lon="-0.44701">
        <ele>174.14</ele>
        <time>2012-03-27T13:37:24Z</time>
      </trkpt>
      <trkpt lat="43.4496" lon="-0.44693">
        <ele>176.54</ele>
        <time>2012-03-27T13:37:34Z</time>
      </trkpt>
      <trkpt lat="43.44967" lon="-0.44684">
        <ele>177.02</ele>
        <time>2012-03-27T13:37:45Z</time>
      </trkpt>
      <trkpt lat="43.44974" lon="-0.44674">
        <ele>178.46</ele>
        <time>2012-03-27T13:37:55Z</time>
      </trkpt>
      <trkpt lat="43.4498" lon="-0.44662">
        <ele>178.46</ele>
        <time>2012-03-27T13:38:06Z</time>
      </trkpt>
      <trkpt lat="43.44985" lon="-0.44649">
        <ele>178.94</ele>
        <time>2012-03-27T13:38:15Z</time>
      </trkpt>
      <trkpt lat="43.44989" lon="-0.44636">
        <ele>180.38</ele>
        <time>2012-03-27T13:38:24Z</time>
      </trkpt>
      <trkpt lat="43.44992" lon="-0.44621">
        <ele>181.35</ele>
        <time>2012-03-27T13:38:34Z</time>
      </trkpt>
      <trkpt lat="43.44994" lon="-0.44605">
        <ele>182.31</ele>
        <time>2012-03-27T13:38:44Z</time>
      </trkpt>
      <trkpt lat="43.44995" lon="-0.44587">
        <ele>183.27</ele>
        <time>2012-03-27T13:38:54Z</time>
      </trkpt>
      <trkpt lat="43.44997" lon="-0.44574">
        <ele>184.23</ele>
        <time>2012-03-27T13:39:03Z</time>
      </trkpt>
      <trkpt lat="43.44998" lon="-0.44558">
        <ele>184.71</ele>
        <time>2012-03-27T13:39:12Z</time>
      </trkpt>
      <trkpt lat="43.45002" lon="-0.44544">
        <ele>185.19</ele>
        <time>2012-03-27T13:39:22Z</time>
      </trkpt>
      <trkpt lat="43.45009" lon="-0.44533">
        <ele>186.63</ele>
        <time>2012-03-27T13:39:32Z</time>
      </trkpt>
      <trkpt lat="43.45014" lon="-0.44521">
        <ele>187.59</ele>
        <time>2012-03-27T13:39:43Z</time>
      </trkpt>
      <trkpt lat="43.45019" lon="-0.44511">
        <ele>188.56</ele>
        <time>2012-03-27T13:39:54Z</time>
      </trkpt>
      <trkpt lat="43.45026" lon="-0.44501">
        <ele>190.48</ele>
        <time>2012-03-27T13:40:05Z</time>
      </trkpt>
      <trkpt lat="43.45032" lon="-0.4449">
        <ele>191.44</ele>
        <time>2012-03-27T13:40:16Z</time>
      </trkpt>
      <trkpt lat="43.45041" lon="-0.44482">
        <ele>192.88</ele>
        <time>2012-03-27T13:40:27Z</time>
      </trkpt>
      <trkpt lat="43.45042" lon="-0.44467">
        <ele>193.84</ele>
        <time>2012-03-27T13:40:47Z</time>
      </trkpt>
      <trkpt lat="43.45047" lon="-0.44455">
        <ele>193.84</ele>
        <time>2012-03-27T13:41:00Z</time>
      </trkpt>
      <trkpt lat="43.45043" lon="-0.44451">
        <ele>194.8</ele>
        <time>2012-03-27T13:42:13Z</time>
      </trkpt>
      <trkpt lat="43.45039" lon="-0.44462">
        <ele>193.84</ele>
        <time>2012-03-27T13:43:05Z</time>
      </trkpt>
      <trkpt lat="43.45039" lon="-0.44472">
        <ele>193.36</ele>
        <time>2012-03-27T13:45:23Z</time>
      </trkpt>
      <trkpt lat="43.45038" lon="-0.44466">
        <ele>193.84</ele>
        <time>2012-03-27T13:48:20Z</time>
      </trkpt>
      <trkpt lat="43.45037" lon="-0.44453">
        <ele>194.8</ele>
        <time>2012-03-27T13:48:30Z</time>
      </trkpt>
      <trkpt lat="43.45029" lon="-0.44443">
        <ele>195.77</ele>
        <time>2012-03-27T13:48:40Z</time>
      </trkpt>
      <trkpt lat="43.45025" lon="-0.4443">
        <ele>195.77</ele>
        <time>2012-03-27T13:48:51Z</time>
      </trkpt>
      <trkpt lat="43.45032" lon="-0.44419">
        <ele>196.25</ele>
        <time>2012-03-27T13:49:00Z</time>
      </trkpt>
      <trkpt lat="43.4504" lon="-0.44411">
        <ele>196.73</ele>
        <time>2012-03-27T13:49:09Z</time>
      </trkpt>
      <trkpt lat="43.45041" lon="-0.44399">
        <ele>195.77</ele>
        <time>2012-03-27T13:49:20Z</time>
      </trkpt>
      <trkpt lat="43.45047" lon="-0.44385">
        <ele>196.73</ele>
        <time>2012-03-27T13:49:29Z</time>
      </trkpt>
      <trkpt lat="43.45052" lon="-0.44372">
        <ele>195.77</ele>
        <time>2012-03-27T13:49:41Z</time>
      </trkpt>
      <trkpt lat="43.45046" lon="-0.44358">
        <ele>196.25</ele>
        <time>2012-03-27T13:49:50Z</time>
      </trkpt>
      <trkpt lat="43.45039" lon="-0.44345">
        <ele>195.77</ele>
        <time>2012-03-27T13:49:59Z</time>
      </trkpt>
      <trkpt lat="43.45032" lon="-0.44338">
        <ele>196.25</ele>
        <time>2012-03-27T13:50:07Z</time>
      </trkpt>
      <trkpt lat="43.45023" lon="-0.44331">
        <ele>195.77</ele>
        <time>2012-03-27T13:50:14Z</time>
      </trkpt>
      <trkpt lat="43.45012" lon="-0.44327">
        <ele>196.25</ele>
        <time>2012-03-27T13:50:23Z</time>
      </trkpt>
      <trkpt lat="43.44999" lon="-0.44326">
        <ele>196.73</ele>
        <time>2012-03-27T13:50:35Z</time>
      </trkpt>
      <trkpt lat="43.44986" lon="-0.44326">
        <ele>197.21</ele>
        <time>2012-03-27T13:50:46Z</time>
      </trkpt>
      <trkpt lat="43.44975" lon="-0.44322">
        <ele>198.17</ele>
        <time>2012-03-27T13:50:56Z</time>
      </trkpt>
      <trkpt lat="43.44967" lon="-0.4432">
        <ele>196.25</ele>
        <time>2012-03-27T13:51:05Z</time>
      </trkpt>
      <trkpt lat="43.4496" lon="-0.44309">
        <ele>196.25</ele>
        <time>2012-03-27T13:51:16Z</time>
      </trkpt>
      <trkpt lat="43.44954" lon="-0.44298">
        <ele>194.32</ele>
        <time>2012-03-27T13:51:26Z</time>
      </trkpt>
      <trkpt lat="43.44948" lon="-0.44288">
        <ele>193.36</ele>
        <time>2012-03-27T13:51:36Z</time>
      </trkpt>
      <trkpt lat="43.44942" lon="-0.44279">
        <ele>191.44</ele>
        <time>2012-03-27T13:51:46Z</time>
      </trkpt>
      <trkpt lat="43.44934" lon="-0.44272">
        <ele>190</ele>
        <time>2012-03-27T13:51:58Z</time>
      </trkpt>
      <trkpt lat="43.4493" lon="-0.44262">
        <ele>187.11</ele>
        <time>2012-03-27T13:52:13Z</time>
      </trkpt>
      <trkpt lat="43.44929" lon="-0.4425">
        <ele>185.19</ele>
        <time>2012-03-27T13:52:26Z</time>
      </trkpt>
      <trkpt lat="43.44924" lon="-0.4424">
        <ele>183.27</ele>
        <time>2012-03-27T13:52:40Z</time>
      </trkpt>
      <trkpt lat="43.44923" lon="-0.44227">
        <ele>180.38</ele>
        <time>2012-03-27T13:52:50Z</time>
      </trkpt>
      <trkpt lat="43.44921" lon="-0.44213">
        <ele>178.94</ele>
        <time>2012-03-27T13:52:59Z</time>
      </trkpt>
      <trkpt lat="43.4492" lon="-0.44201">
        <ele>178.46</ele>
        <time>2012-03-27T13:53:07Z</time>
      </trkpt>
      <trkpt lat="43.44915" lon="-0.44182">
        <ele>176.54</ele>
        <time>2012-03-27T13:53:17Z</time>
      </trkpt>
      <trkpt lat="43.4491" lon="-0.44171">
        <ele>176.54</ele>
        <time>2012-03-27T13:53:26Z</time>
      </trkpt>
      <trkpt lat="43.44899" lon="-0.44175">
        <ele>176.06</ele>
        <time>2012-03-27T13:53:54Z</time>
      </trkpt>
      <trkpt lat="43.44889" lon="-0.44168">
        <ele>176.06</ele>
        <time>2012-03-27T13:54:02Z</time>
      </trkpt>
      <trkpt lat="43.44879" lon="-0.44163">
        <ele>175.58</ele>
        <time>2012-03-27T13:54:10Z</time>
      </trkpt>
      <trkpt lat="43.4487" lon="-0.44161">
        <ele>175.1</ele>
        <time>2012-03-27T13:54:19Z</time>
      </trkpt>
      <trkpt lat="43.44858" lon="-0.44161">
        <ele>174.62</ele>
        <time>2012-03-27T13:54:28Z</time>
      </trkpt>
      <trkpt lat="43.44846" lon="-0.4416">
        <ele>174.14</ele>
        <time>2012-03-27T13:54:37Z</time>
      </trkpt>
      <trkpt lat="43.44835" lon="-0.44158">
        <ele>174.14</ele>
        <time>2012-03-27T13:54:46Z</time>
      </trkpt>
      <trkpt lat="43.44826" lon="-0.44155">
        <ele>174.14</ele>
        <time>2012-03-27T13:54:55Z</time>
      </trkpt>
      <trkpt lat="43.44817" lon="-0.4416">
        <ele>174.14</ele>
        <time>2012-03-27T13:55:05Z</time>
      </trkpt>
      <trkpt lat="43.44811" lon="-0.44175">
        <ele>173.66</ele>
        <time>2012-03-27T13:55:14Z</time>
      </trkpt>
      <trkpt lat="43.44805" lon="-0.44192">
        <ele>173.66</ele>
        <time>2012-03-27T13:55:27Z</time>
      </trkpt>
      <trkpt lat="43.44801" lon="-0.44203">
        <ele>174.14</ele>
        <time>2012-03-27T13:55:34Z</time>
      </trkpt>
      <trkpt lat="43.44795" lon="-0.44214">
        <ele>173.66</ele>
        <time>2012-03-27T13:55:48Z</time>
      </trkpt>
      <trkpt lat="43.44784" lon="-0.44231">
        <ele>173.17</ele>
        <time>2012-03-27T13:55:57Z</time>
      </trkpt>
      <trkpt lat="43.44778" lon="-0.44239">
        <ele>173.66</ele>
        <time>2012-03-27T13:56:05Z</time>
      </trkpt>
      <trkpt lat="43.44769" lon="-0.44244">
        <ele>174.14</ele>
        <time>2012-03-27T13:56:15Z</time>
      </trkpt>
      <trkpt lat="43.44754" lon="-0.44244">
        <ele>176.54</ele>
        <time>2012-03-27T13:56:38Z</time>
      </trkpt>
      <trkpt lat="43.44744" lon="-0.44243">
        <ele>177.5</ele>
        <time>2012-03-27T13:56:48Z</time>
      </trkpt>
      <trkpt lat="43.44736" lon="-0.4424">
        <ele>179.42</ele>
        <time>2012-03-27T13:57:00Z</time>
      </trkpt>
      <trkpt lat="43.44727" lon="-0.44235">
        <ele>181.83</ele>
        <time>2012-03-27T13:57:17Z</time>
      </trkpt>
      <trkpt lat="43.44719" lon="-0.44234">
        <ele>182.79</ele>
        <time>2012-03-27T13:57:26Z</time>
      </trkpt>
      <trkpt lat="43.44709" lon="-0.44234">
        <ele>184.23</ele>
        <time>2012-03-27T13:57:37Z</time>
      </trkpt>
      <trkpt lat="43.447" lon="-0.44231">
        <ele>185.19</ele>
        <time>2012-03-27T13:57:51Z</time>
      </trkpt>
      <trkpt lat="43.44692" lon="-0.44226">
        <ele>186.15</ele>
        <time>2012-03-27T13:58:04Z</time>
      </trkpt>
      <trkpt lat="43.44686" lon="-0.44233">
        <ele>187.11</ele>
        <time>2012-03-27T13:58:42Z</time>
      </trkpt>
      <trkpt lat="43.44678" lon="-0.44227">
        <ele>188.08</ele>
        <time>2012-03-27T13:58:52Z</time>
      </trkpt>
      <trkpt lat="43.44669" lon="-0.4422">
        <ele>190</ele>
        <time>2012-03-27T13:59:02Z</time>
      </trkpt>
      <trkpt lat="43.44661" lon="-0.44216">
        <ele>190.48</ele>
        <time>2012-03-27T13:59:17Z</time>
      </trkpt>
      <trkpt lat="43.44653" lon="-0.44211">
        <ele>191.44</ele>
        <time>2012-03-27T13:59:30Z</time>
      </trkpt>
      <trkpt lat="43.44643" lon="-0.44208">
        <ele>192.4</ele>
        <time>2012-03-27T13:59:40Z</time>
      </trkpt>
      <trkpt lat="43.44635" lon="-0.442">
        <ele>194.32</ele>
        <time>2012-03-27T13:59:50Z</time>
      </trkpt>
      <trkpt lat="43.44627" lon="-0.44192">
        <ele>194.8</ele>
        <time>2012-03-27T14:00:00Z</time>
      </trkpt>
      <trkpt lat="43.44619" lon="-0.44184">
        <ele>195.77</ele>
        <time>2012-03-27T14:00:11Z</time>
      </trkpt>
      <trkpt lat="43.4461" lon="-0.44178">
        <ele>197.69</ele>
        <time>2012-03-27T14:00:25Z</time>
      </trkpt>
      <trkpt lat="43.44602" lon="-0.44171">
        <ele>198.65</ele>
        <time>2012-03-27T14:00:35Z</time>
      </trkpt>
      <trkpt lat="43.44592" lon="-0.44164">
        <ele>199.61</ele>
        <time>2012-03-27T14:00:45Z</time>
      </trkpt>
      <trkpt lat="43.44584" lon="-0.44154">
        <ele>199.61</ele>
        <time>2012-03-27T14:00:55Z</time>
      </trkpt>
      <trkpt lat="43.44576" lon="-0.44146">
        <ele>199.61</ele>
        <time>2012-03-27T14:01:04Z</time>
      </trkpt>
      <trkpt lat="43.44568" lon="-0.44138">
        <ele>200.09</ele>
        <time>2012-03-27T14:01:14Z</time>
      </trkpt>
      <trkpt lat="43.44565" lon="-0.44127">
        <ele>200.09</ele>
        <time>2012-03-27T14:01:25Z</time>
      </trkpt>
      <trkpt lat="43.44569" lon="-0.44114">
        <ele>200.09</ele>
        <time>2012-03-27T14:01:35Z</time>
      </trkpt>
      <trkpt lat="43.44573" lon="-0.44101">
        <ele>200.57</ele>
        <time>2012-03-27T14:01:45Z</time>
      </trkpt>
      <trkpt lat="43.44577" lon="-0.44086">
        <ele>200.57</ele>
        <time>2012-03-27T14:01:55Z</time>
      </trkpt>
      <trkpt lat="43.44579" lon="-0.44074">
        <ele>200.57</ele>
        <time>2012-03-27T14:02:06Z</time>
      </trkpt>
      <trkpt lat="43.44572" lon="-0.44067">
        <ele>200.09</ele>
        <time>2012-03-27T14:02:17Z</time>
      </trkpt>
      <trkpt lat="43.44566" lon="-0.44057">
        <ele>199.61</ele>
        <time>2012-03-27T14:02:30Z</time>
      </trkpt>
      <trkpt lat="43.44564" lon="-0.44045">
        <ele>197.69</ele>
        <time>2012-03-27T14:02:47Z</time>
      </trkpt>
      <trkpt lat="43.44558" lon="-0.44034">
        <ele>196.25</ele>
        <time>2012-03-27T14:02:56Z</time>
      </trkpt>
      <trkpt lat="43.44552" lon="-0.44026">
        <ele>194.32</ele>
        <time>2012-03-27T14:03:12Z</time>
      </trkpt>
      <trkpt lat="43.44545" lon="-0.44015">
        <ele>191.92</ele>
        <time>2012-03-27T14:03:24Z</time>
      </trkpt>
      <trkpt lat="43.4454" lon="-0.44004">
        <ele>189.52</ele>
        <time>2012-03-27T14:03:49Z</time>
      </trkpt>
      <trkpt lat="43.44533" lon="-0.43996">
        <ele>187.59</ele>
        <time>2012-03-27T14:04:00Z</time>
      </trkpt>
      <trkpt lat="43.44527" lon="-0.43987">
        <ele>185.67</ele>
        <time>2012-03-27T14:04:08Z</time>
      </trkpt>
      <trkpt lat="43.44519" lon="-0.43981">
        <ele>184.23</ele>
        <time>2012-03-27T14:04:19Z</time>
      </trkpt>
      <trkpt lat="43.44511" lon="-0.43973">
        <ele>182.31</ele>
        <time>2012-03-27T14:04:29Z</time>
      </trkpt>
      <trkpt lat="43.44505" lon="-0.43964">
        <ele>181.35</ele>
        <time>2012-03-27T14:04:38Z</time>
      </trkpt>
      <trkpt lat="43.44497" lon="-0.43956">
        <ele>179.9</ele>
        <time>2012-03-27T14:04:48Z</time>
      </trkpt>
      <trkpt lat="43.44489" lon="-0.4395">
        <ele>179.42</ele>
        <time>2012-03-27T14:04:59Z</time>
      </trkpt>
      <trkpt lat="43.44482" lon="-0.43942">
        <ele>177.98</ele>
        <time>2012-03-27T14:05:10Z</time>
      </trkpt>
      <trkpt lat="43.44474" lon="-0.43934">
        <ele>177.5</ele>
        <time>2012-03-27T14:05:19Z</time>
      </trkpt>
      <trkpt lat="43.44466" lon="-0.43926">
        <ele>177.02</ele>
        <time>2012-03-27T14:05:29Z</time>
      </trkpt>
      <trkpt lat="43.44471" lon="-0.43919">
        <ele>177.98</ele>
        <time>2012-03-27T14:08:22Z</time>
      </trkpt>
      <trkpt lat="43.44471" lon="-0.43916">
        <ele>178.94</ele>
        <time>2012-03-27T14:27:05Z</time>
      </trkpt>
      <trkpt lat="43.44469" lon="-0.43923">
        <ele>178.94</ele>
        <time>2012-03-27T14:32:55Z</time>
      </trkpt>
      <trkpt lat="43.4446" lon="-0.43919">
        <ele>177.98</ele>
        <time>2012-03-27T14:33:14Z</time>
      </trkpt>
      <trkpt lat="43.44453" lon="-0.4391">
        <ele>177.02</ele>
        <time>2012-03-27T14:33:25Z</time>
      </trkpt>
      <trkpt lat="43.44445" lon="-0.43902">
        <ele>176.06</ele>
        <time>2012-03-27T14:33:36Z</time>
      </trkpt>
      <trkpt lat="43.44438" lon="-0.43894">
        <ele>176.06</ele>
        <time>2012-03-27T14:33:44Z</time>
      </trkpt>
      <trkpt lat="43.44428" lon="-0.4388">
        <ele>176.06</ele>
        <time>2012-03-27T14:33:55Z</time>
      </trkpt>
      <trkpt lat="43.4442" lon="-0.43869">
        <ele>175.58</ele>
        <time>2012-03-27T14:34:05Z</time>
      </trkpt>
      <trkpt lat="43.44412" lon="-0.43858">
        <ele>175.1</ele>
        <time>2012-03-27T14:34:14Z</time>
      </trkpt>
      <trkpt lat="43.44406" lon="-0.43849">
        <ele>174.62</ele>
        <time>2012-03-27T14:34:23Z</time>
      </trkpt>
      <trkpt lat="43.44398" lon="-0.4384">
        <ele>174.62</ele>
        <time>2012-03-27T14:34:33Z</time>
      </trkpt>
      <trkpt lat="43.44391" lon="-0.43832">
        <ele>175.1</ele>
        <time>2012-03-27T14:34:43Z</time>
      </trkpt>
      <trkpt lat="43.44382" lon="-0.43822">
        <ele>174.62</ele>
        <time>2012-03-27T14:34:53Z</time>
      </trkpt>
      <trkpt lat="43.44373" lon="-0.43814">
        <ele>174.62</ele>
        <time>2012-03-27T14:35:03Z</time>
      </trkpt>
      <trkpt lat="43.44365" lon="-0.43805">
        <ele>174.62</ele>
        <time>2012-03-27T14:35:12Z</time>
      </trkpt>
      <trkpt lat="43.44356" lon="-0.43797">
        <ele>174.62</ele>
        <time>2012-03-27T14:35:21Z</time>
      </trkpt>
      <trkpt lat="43.44348" lon="-0.4379">
        <ele>174.62</ele>
        <time>2012-03-27T14:35:30Z</time>
      </trkpt>
      <trkpt lat="43.4434" lon="-0.43786">
        <ele>175.1</ele>
        <time>2012-03-27T14:35:41Z</time>
      </trkpt>
      <trkpt lat="43.44333" lon="-0.43785">
        <ele>175.1</ele>
        <time>2012-03-27T14:35:53Z</time>
      </trkpt>
      <trkpt lat="43.44322" lon="-0.43784">
        <ele>175.58</ele>
        <time>2012-03-27T14:36:02Z</time>
      </trkpt>
      <trkpt lat="43.44309" lon="-0.43783">
        <ele>176.06</ele>
        <time>2012-03-27T14:36:12Z</time>
      </trkpt>
      <trkpt lat="43.443" lon="-0.43782">
        <ele>176.54</ele>
        <time>2012-03-27T14:36:21Z</time>
      </trkpt>
      <trkpt lat="43.4429" lon="-0.4378">
        <ele>177.02</ele>
        <time>2012-03-27T14:36:32Z</time>
      </trkpt>
      <trkpt lat="43.4428" lon="-0.43779">
        <ele>177.5</ele>
        <time>2012-03-27T14:36:41Z</time>
      </trkpt>
      <trkpt lat="43.44271" lon="-0.4378">
        <ele>177.98</ele>
        <time>2012-03-27T14:36:50Z</time>
      </trkpt>
      <trkpt lat="43.44262" lon="-0.43779">
        <ele>178.94</ele>
        <time>2012-03-27T14:36:59Z</time>
      </trkpt>
      <trkpt lat="43.44253" lon="-0.43778">
        <ele>179.42</ele>
        <time>2012-03-27T14:37:10Z</time>
      </trkpt>
      <trkpt lat="43.44244" lon="-0.43778">
        <ele>178.94</ele>
        <time>2012-03-27T14:38:23Z</time>
      </trkpt>
      <trkpt lat="43.44233" lon="-0.4378">
        <ele>178.94</ele>
        <time>2012-03-27T14:38:32Z</time>
      </trkpt>
      <trkpt lat="43.44223" lon="-0.4378">
        <ele>177.98</ele>
        <time>2012-03-27T14:38:42Z</time>
      </trkpt>
      <trkpt lat="43.44213" lon="-0.43779">
        <ele>177.02</ele>
        <time>2012-03-27T14:38:52Z</time>
      </trkpt>
      <trkpt lat="43.44202" lon="-0.43776">
        <ele>176.06</ele>
        <time>2012-03-27T14:39:01Z</time>
      </trkpt>
      <trkpt lat="43.44192" lon="-0.43772">
        <ele>175.58</ele>
        <time>2012-03-27T14:39:10Z</time>
      </trkpt>
      <trkpt lat="43.44183" lon="-0.43772">
        <ele>174.62</ele>
        <time>2012-03-27T14:39:19Z</time>
      </trkpt>
      <trkpt lat="43.44173" lon="-0.43771">
        <ele>174.14</ele>
        <time>2012-03-27T14:39:29Z</time>
      </trkpt>
      <trkpt lat="43.44162" lon="-0.43767">
        <ele>173.66</ele>
        <time>2012-03-27T14:39:40Z</time>
      </trkpt>
      <trkpt lat="43.44153" lon="-0.43766">
        <ele>173.17</ele>
        <time>2012-03-27T14:39:49Z</time>
      </trkpt>
      <trkpt lat="43.44144" lon="-0.43763">
        <ele>173.66</ele>
        <time>2012-03-27T14:39:58Z</time>
      </trkpt>
      <trkpt lat="43.44134" lon="-0.4376">
        <ele>173.17</ele>
        <time>2012-03-27T14:40:08Z</time>
      </trkpt>
      <trkpt lat="43.44123" lon="-0.43755">
        <ele>173.66</ele>
        <time>2012-03-27T14:40:19Z</time>
      </trkpt>
      <trkpt lat="43.44112" lon="-0.43755">
        <ele>174.14</ele>
        <time>2012-03-27T14:40:29Z</time>
      </trkpt>
      <trkpt lat="43.441" lon="-0.43758">
        <ele>174.14</ele>
        <time>2012-03-27T14:40:39Z</time>
      </trkpt>
      <trkpt lat="43.44091" lon="-0.43762">
        <ele>174.62</ele>
        <time>2012-03-27T14:40:49Z</time>
      </trkpt>
      <trkpt lat="43.44083" lon="-0.43768">
        <ele>174.62</ele>
        <time>2012-03-27T14:40:58Z</time>
      </trkpt>
      <trkpt lat="43.44074" lon="-0.43772">
        <ele>175.1</ele>
        <time>2012-03-27T14:41:06Z</time>
      </trkpt>
      <trkpt lat="43.44065" lon="-0.43776">
        <ele>175.1</ele>
        <time>2012-03-27T14:41:14Z</time>
      </trkpt>
      <trkpt lat="43.44057" lon="-0.43783">
        <ele>175.1</ele>
        <time>2012-03-27T14:41:23Z</time>
      </trkpt>
      <trkpt lat="43.44047" lon="-0.43788">
        <ele>176.06</ele>
        <time>2012-03-27T14:41:32Z</time>
      </trkpt>
      <trkpt lat="43.4404" lon="-0.43795">
        <ele>176.54</ele>
        <time>2012-03-27T14:41:39Z</time>
      </trkpt>
      <trkpt lat="43.44032" lon="-0.43803">
        <ele>177.02</ele>
        <time>2012-03-27T14:41:47Z</time>
      </trkpt>
      <trkpt lat="43.44023" lon="-0.43809">
        <ele>178.46</ele>
        <time>2012-03-27T14:41:55Z</time>
      </trkpt>
      <trkpt lat="43.44015" lon="-0.43815">
        <ele>178.46</ele>
        <time>2012-03-27T14:42:04Z</time>
      </trkpt>
      <trkpt lat="43.44008" lon="-0.43822">
        <ele>179.9</ele>
        <time>2012-03-27T14:42:15Z</time>
      </trkpt>
      <trkpt lat="43.43999" lon="-0.43829">
        <ele>181.35</ele>
        <time>2012-03-27T14:42:26Z</time>
      </trkpt>
      <trkpt lat="43.43994" lon="-0.43839">
        <ele>183.27</ele>
        <time>2012-03-27T14:42:38Z</time>
      </trkpt>
      <trkpt lat="43.43983" lon="-0.43846">
        <ele>184.23</ele>
        <time>2012-03-27T14:42:48Z</time>
      </trkpt>
      <trkpt lat="43.43975" lon="-0.43853">
        <ele>186.15</ele>
        <time>2012-03-27T14:43:00Z</time>
      </trkpt>
      <trkpt lat="43.43967" lon="-0.4386">
        <ele>187.59</ele>
        <time>2012-03-27T14:43:12Z</time>
      </trkpt>
      <trkpt lat="43.43958" lon="-0.43864">
        <ele>189.04</ele>
        <time>2012-03-27T14:43:24Z</time>
      </trkpt>
      <trkpt lat="43.43948" lon="-0.43869">
        <ele>189.52</ele>
        <time>2012-03-27T14:43:34Z</time>
      </trkpt>
      <trkpt lat="43.43938" lon="-0.43872">
        <ele>190</ele>
        <time>2012-03-27T14:43:44Z</time>
      </trkpt>
      <trkpt lat="43.43928" lon="-0.43874">
        <ele>190.48</ele>
        <time>2012-03-27T14:43:54Z</time>
      </trkpt>
      <trkpt lat="43.43917" lon="-0.43876">
        <ele>190.96</ele>
        <time>2012-03-27T14:44:04Z</time>
      </trkpt>
      <trkpt lat="43.43906" lon="-0.43872">
        <ele>191.92</ele>
        <time>2012-03-27T14:44:14Z</time>
      </trkpt>
      <trkpt lat="43.43896" lon="-0.4387">
        <ele>190.96</ele>
        <time>2012-03-27T14:44:24Z</time>
      </trkpt>
      <trkpt lat="43.43888" lon="-0.4387">
        <ele>190.48</ele>
        <time>2012-03-27T14:44:33Z</time>
      </trkpt>
      <trkpt lat="43.43879" lon="-0.43866">
        <ele>190</ele>
        <time>2012-03-27T14:44:42Z</time>
      </trkpt>
      <trkpt lat="43.43868" lon="-0.43864">
        <ele>189.04</ele>
        <time>2012-03-27T14:44:52Z</time>
      </trkpt>
      <trkpt lat="43.4386" lon="-0.43858">
        <ele>188.56</ele>
        <time>2012-03-27T14:45:00Z</time>
      </trkpt>
      <trkpt lat="43.43849" lon="-0.43853">
        <ele>187.59</ele>
        <time>2012-03-27T14:45:10Z</time>
      </trkpt>
      <trkpt lat="43.43839" lon="-0.43849">
        <ele>186.15</ele>
        <time>2012-03-27T14:45:20Z</time>
      </trkpt>
      <trkpt lat="43.43829" lon="-0.43841">
        <ele>185.67</ele>
        <time>2012-03-27T14:45:30Z</time>
      </trkpt>
      <trkpt lat="43.4382" lon="-0.43834">
        <ele>184.71</ele>
        <time>2012-03-27T14:45:39Z</time>
      </trkpt>
      <trkpt lat="43.43811" lon="-0.43825">
        <ele>183.27</ele>
        <time>2012-03-27T14:45:48Z</time>
      </trkpt>
      <trkpt lat="43.43803" lon="-0.43817">
        <ele>182.31</ele>
        <time>2012-03-27T14:45:56Z</time>
      </trkpt>
      <trkpt lat="43.43795" lon="-0.4381">
        <ele>181.83</ele>
        <time>2012-03-27T14:46:04Z</time>
      </trkpt>
      <trkpt lat="43.43787" lon="-0.43803">
        <ele>180.87</ele>
        <time>2012-03-27T14:46:13Z</time>
      </trkpt>
      <trkpt lat="43.43778" lon="-0.4379">
        <ele>179.9</ele>
        <time>2012-03-27T14:46:21Z</time>
      </trkpt>
      <trkpt lat="43.43771" lon="-0.43783">
        <ele>178.94</ele>
        <time>2012-03-27T14:46:30Z</time>
      </trkpt>
      <trkpt lat="43.43762" lon="-0.43774">
        <ele>178.46</ele>
        <time>2012-03-27T14:46:40Z</time>
      </trkpt>
      <trkpt lat="43.43754" lon="-0.43764">
        <ele>177.5</ele>
        <time>2012-03-27T14:46:49Z</time>
      </trkpt>
      <trkpt lat="43.43746" lon="-0.43755">
        <ele>177.02</ele>
        <time>2012-03-27T14:46:58Z</time>
      </trkpt>
      <trkpt lat="43.43738" lon="-0.43745">
        <ele>177.02</ele>
        <time>2012-03-27T14:47:06Z</time>
      </trkpt>
      <trkpt lat="43.4373" lon="-0.43737">
        <ele>177.02</ele>
        <time>2012-03-27T14:47:15Z</time>
      </trkpt>
      <trkpt lat="43.43721" lon="-0.43727">
        <ele>176.54</ele>
        <time>2012-03-27T14:47:24Z</time>
      </trkpt>
      <trkpt lat="43.43716" lon="-0.43716">
        <ele>176.54</ele>
        <time>2012-03-27T14:47:32Z</time>
      </trkpt>
      <trkpt lat="43.43707" lon="-0.43709">
        <ele>175.1</ele>
        <time>2012-03-27T14:47:40Z</time>
      </trkpt>
      <trkpt lat="43.43698" lon="-0.43702">
        <ele>174.62</ele>
        <time>2012-03-27T14:47:49Z</time>
      </trkpt>
      <trkpt lat="43.4369" lon="-0.43691">
        <ele>173.66</ele>
        <time>2012-03-27T14:47:59Z</time>
      </trkpt>
      <trkpt lat="43.43683" lon="-0.43683">
        <ele>171.73</ele>
        <time>2012-03-27T14:48:09Z</time>
      </trkpt>
      <trkpt lat="43.43673" lon="-0.43675">
        <ele>172.21</ele>
        <time>2012-03-27T14:48:17Z</time>
      </trkpt>
      <trkpt lat="43.43663" lon="-0.43672">
        <ele>171.73</ele>
        <time>2012-03-27T14:48:25Z</time>
      </trkpt>
      <trkpt lat="43.43654" lon="-0.43671">
        <ele>171.25</ele>
        <time>2012-03-27T14:48:33Z</time>
      </trkpt>
      <trkpt lat="43.43644" lon="-0.43674">
        <ele>170.29</ele>
        <time>2012-03-27T14:48:41Z</time>
      </trkpt>
      <trkpt lat="43.43634" lon="-0.43674">
        <ele>169.33</ele>
        <time>2012-03-27T14:48:49Z</time>
      </trkpt>
      <trkpt lat="43.43623" lon="-0.43675">
        <ele>168.85</ele>
        <time>2012-03-27T14:48:58Z</time>
      </trkpt>
      <trkpt lat="43.43612" lon="-0.43674">
        <ele>168.85</ele>
        <time>2012-03-27T14:49:08Z</time>
      </trkpt>
      <trkpt lat="43.43601" lon="-0.43672">
        <ele>167.89</ele>
        <time>2012-03-27T14:49:17Z</time>
      </trkpt>
      <trkpt lat="43.43591" lon="-0.43671">
        <ele>167.41</ele>
        <time>2012-03-27T14:49:25Z</time>
      </trkpt>
      <trkpt lat="43.43581" lon="-0.43672">
        <ele>166.93</ele>
        <time>2012-03-27T14:49:33Z</time>
      </trkpt>
      <trkpt lat="43.43573" lon="-0.43671">
        <ele>166.93</ele>
        <time>2012-03-27T14:49:41Z</time>
      </trkpt>
      <trkpt lat="43.43563" lon="-0.43668">
        <ele>165.96</ele>
        <time>2012-03-27T14:49:49Z</time>
      </trkpt>
      <trkpt lat="43.43554" lon="-0.43665">
        <ele>165</ele>
        <time>2012-03-27T14:49:57Z</time>
      </trkpt>
      <trkpt lat="43.43543" lon="-0.43662">
        <ele>165</ele>
        <time>2012-03-27T14:50:05Z</time>
      </trkpt>
      <trkpt lat="43.43533" lon="-0.43662">
        <ele>165</ele>
        <time>2012-03-27T14:50:13Z</time>
      </trkpt>
      <trkpt lat="43.43524" lon="-0.4366">
        <ele>165</ele>
        <time>2012-03-27T14:50:21Z</time>
      </trkpt>
      <trkpt lat="43.43514" lon="-0.43655">
        <ele>165</ele>
        <time>2012-03-27T14:50:30Z</time>
      </trkpt>
      <trkpt lat="43.43505" lon="-0.4365">
        <ele>164.52</ele>
        <time>2012-03-27T14:50:39Z</time>
      </trkpt>
      <trkpt lat="43.43495" lon="-0.43648">
        <ele>163.56</ele>
        <time>2012-03-27T14:50:47Z</time>
      </trkpt>
      <trkpt lat="43.43483" lon="-0.43646">
        <ele>163.08</ele>
        <time>2012-03-27T14:50:56Z</time>
      </trkpt>
      <trkpt lat="43.43473" lon="-0.43645">
        <ele>163.08</ele>
        <time>2012-03-27T14:51:05Z</time>
      </trkpt>
      <trkpt lat="43.43462" lon="-0.43646">
        <ele>162.12</ele>
        <time>2012-03-27T14:51:15Z</time>
      </trkpt>
      <trkpt lat="43.4345" lon="-0.43647">
        <ele>162.12</ele>
        <time>2012-03-27T14:51:23Z</time>
      </trkpt>
      <trkpt lat="43.4344" lon="-0.43647">
        <ele>161.64</ele>
        <time>2012-03-27T14:51:31Z</time>
      </trkpt>
      <trkpt lat="43.43428" lon="-0.43648">
        <ele>160.68</ele>
        <time>2012-03-27T14:51:39Z</time>
      </trkpt>
      <trkpt lat="43.43416" lon="-0.43647">
        <ele>160.68</ele>
        <time>2012-03-27T14:51:48Z</time>
      </trkpt>
      <trkpt lat="43.43403" lon="-0.43646">
        <ele>160.2</ele>
        <time>2012-03-27T14:51:57Z</time>
      </trkpt>
      <trkpt lat="43.43393" lon="-0.43646">
        <ele>160.2</ele>
        <time>2012-03-27T14:52:07Z</time>
      </trkpt>
      <trkpt lat="43.43383" lon="-0.4365">
        <ele>160.2</ele>
        <time>2012-03-27T14:52:15Z</time>
      </trkpt>
      <trkpt lat="43.4337" lon="-0.43657">
        <ele>160.2</ele>
        <time>2012-03-27T14:52:25Z</time>
      </trkpt>
      <trkpt lat="43.43362" lon="-0.43665">
        <ele>160.2</ele>
        <time>2012-03-27T14:52:32Z</time>
      </trkpt>
      <trkpt lat="43.43356" lon="-0.43677">
        <ele>160.2</ele>
        <time>2012-03-27T14:53:27Z</time>
      </trkpt>
      <trkpt lat="43.43357" lon="-0.43679">
        <ele>160.68</ele>
        <time>2012-03-27T14:54:26Z</time>
      </trkpt>
      <trkpt lat="43.43348" lon="-0.43688">
        <ele>160.68</ele>
        <time>2012-03-27T14:54:33Z</time>
      </trkpt>
      <trkpt lat="43.43341" lon="-0.43698">
        <ele>160.68</ele>
        <time>2012-03-27T14:54:41Z</time>
      </trkpt>
      <trkpt lat="43.43332" lon="-0.43709">
        <ele>161.16</ele>
        <time>2012-03-27T14:54:50Z</time>
      </trkpt>
      <trkpt lat="43.43327" lon="-0.43722">
        <ele>162.12</ele>
        <time>2012-03-27T14:54:58Z</time>
      </trkpt>
      <trkpt lat="43.43324" lon="-0.43734">
        <ele>163.08</ele>
        <time>2012-03-27T14:55:09Z</time>
      </trkpt>
      <trkpt lat="43.43321" lon="-0.43746">
        <ele>164.04</ele>
        <time>2012-03-27T14:55:18Z</time>
      </trkpt>
      <trkpt lat="43.4331" lon="-0.4376">
        <ele>165.48</ele>
        <time>2012-03-27T14:55:27Z</time>
      </trkpt>
      <trkpt lat="43.43304" lon="-0.43774">
        <ele>166.93</ele>
        <time>2012-03-27T14:55:36Z</time>
      </trkpt>
      <trkpt lat="43.433" lon="-0.43784">
        <ele>167.41</ele>
        <time>2012-03-27T14:55:45Z</time>
      </trkpt>
      <trkpt lat="43.43294" lon="-0.43796">
        <ele>168.37</ele>
        <time>2012-03-27T14:55:54Z</time>
      </trkpt>
      <trkpt lat="43.43287" lon="-0.43808">
        <ele>169.33</ele>
        <time>2012-03-27T14:56:03Z</time>
      </trkpt>
      <trkpt lat="43.43281" lon="-0.43819">
        <ele>169.33</ele>
        <time>2012-03-27T14:56:11Z</time>
      </trkpt>
      <trkpt lat="43.43274" lon="-0.43828">
        <ele>170.29</ele>
        <time>2012-03-27T14:56:20Z</time>
      </trkpt>
      <trkpt lat="43.43266" lon="-0.43836">
        <ele>170.77</ele>
        <time>2012-03-27T14:56:30Z</time>
      </trkpt>
      <trkpt lat="43.43258" lon="-0.43845">
        <ele>170.77</ele>
        <time>2012-03-27T14:56:40Z</time>
      </trkpt>
      <trkpt lat="43.43252" lon="-0.43854">
        <ele>171.73</ele>
        <time>2012-03-27T14:56:48Z</time>
      </trkpt>
      <trkpt lat="43.43246" lon="-0.43863">
        <ele>172.21</ele>
        <time>2012-03-27T14:56:56Z</time>
      </trkpt>
      <trkpt lat="43.4324" lon="-0.43873">
        <ele>172.69</ele>
        <time>2012-03-27T14:57:05Z</time>
      </trkpt>
      <trkpt lat="43.43233" lon="-0.43883">
        <ele>172.69</ele>
        <time>2012-03-27T14:57:13Z</time>
      </trkpt>
      <trkpt lat="43.43226" lon="-0.43894">
        <ele>172.21</ele>
        <time>2012-03-27T14:57:21Z</time>
      </trkpt>
      <trkpt lat="43.43223" lon="-0.43905">
        <ele>172.69</ele>
        <time>2012-03-27T14:57:30Z</time>
      </trkpt>
      <trkpt lat="43.43217" lon="-0.43917">
        <ele>172.69</ele>
        <time>2012-03-27T14:57:38Z</time>
      </trkpt>
      <trkpt lat="43.4321" lon="-0.43928">
        <ele>172.69</ele>
        <time>2012-03-27T14:57:47Z</time>
      </trkpt>
      <trkpt lat="43.43203" lon="-0.4394">
        <ele>172.69</ele>
        <time>2012-03-27T14:57:56Z</time>
      </trkpt>
      <trkpt lat="43.43197" lon="-0.43951">
        <ele>172.69</ele>
        <time>2012-03-27T14:58:05Z</time>
      </trkpt>
      <trkpt lat="43.4319" lon="-0.43962">
        <ele>172.69</ele>
        <time>2012-03-27T14:58:14Z</time>
      </trkpt>
      <trkpt lat="43.43185" lon="-0.43973">
        <ele>173.17</ele>
        <time>2012-03-27T14:58:22Z</time>
      </trkpt>
      <trkpt lat="43.43178" lon="-0.43984">
        <ele>173.17</ele>
        <time>2012-03-27T14:58:32Z</time>
      </trkpt>
      <trkpt lat="43.43172" lon="-0.43994">
        <ele>173.17</ele>
        <time>2012-03-27T14:58:40Z</time>
      </trkpt>
      <trkpt lat="43.43166" lon="-0.44004">
        <ele>173.66</ele>
        <time>2012-03-27T14:58:48Z</time>
      </trkpt>
      <trkpt lat="43.43159" lon="-0.44016">
        <ele>173.66</ele>
        <time>2012-03-27T14:58:57Z</time>
      </trkpt>
      <trkpt lat="43.43152" lon="-0.44028">
        <ele>173.66</ele>
        <time>2012-03-27T14:59:07Z</time>
      </trkpt>
      <trkpt lat="43.43144" lon="-0.4404">
        <ele>173.17</ele>
        <time>2012-03-27T14:59:17Z</time>
      </trkpt>
      <trkpt lat="43.43137" lon="-0.4405">
        <ele>173.66</ele>
        <time>2012-03-27T14:59:27Z</time>
      </trkpt>
      <trkpt lat="43.43129" lon="-0.44059">
        <ele>173.17</ele>
        <time>2012-03-27T14:59:36Z</time>
      </trkpt>
      <trkpt lat="43.43122" lon="-0.44071">
        <ele>173.66</ele>
        <time>2012-03-27T14:59:45Z</time>
      </trkpt>
      <trkpt lat="43.43116" lon="-0.44082">
        <ele>174.14</ele>
        <time>2012-03-27T14:59:54Z</time>
      </trkpt>
      <trkpt lat="43.43108" lon="-0.44092">
        <ele>173.66</ele>
        <time>2012-03-27T15:00:04Z</time>
      </trkpt>
      <trkpt lat="43.43102" lon="-0.44104">
        <ele>173.66</ele>
        <time>2012-03-27T15:00:13Z</time>
      </trkpt>
      <trkpt lat="43.43096" lon="-0.44116">
        <ele>173.17</ele>
        <time>2012-03-27T15:00:22Z</time>
      </trkpt>
      <trkpt lat="43.43089" lon="-0.44128">
        <ele>173.17</ele>
        <time>2012-03-27T15:00:31Z</time>
      </trkpt>
      <trkpt lat="43.43082" lon="-0.44139">
        <ele>173.17</ele>
        <time>2012-03-27T15:00:41Z</time>
      </trkpt>
      <trkpt lat="43.43074" lon="-0.44149">
        <ele>172.69</ele>
        <time>2012-03-27T15:00:50Z</time>
      </trkpt>
      <trkpt lat="43.43068" lon="-0.44159">
        <ele>173.17</ele>
        <time>2012-03-27T15:00:58Z</time>
      </trkpt>
      <trkpt lat="43.43061" lon="-0.4417">
        <ele>172.69</ele>
        <time>2012-03-27T15:01:07Z</time>
      </trkpt>
      <trkpt lat="43.43053" lon="-0.44182">
        <ele>173.17</ele>
        <time>2012-03-27T15:01:16Z</time>
      </trkpt>
      <trkpt lat="43.43047" lon="-0.44192">
        <ele>172.69</ele>
        <time>2012-03-27T15:01:25Z</time>
      </trkpt>
      <trkpt lat="43.43039" lon="-0.44201">
        <ele>172.69</ele>
        <time>2012-03-27T15:01:33Z</time>
      </trkpt>
      <trkpt lat="43.43031" lon="-0.44211">
        <ele>172.21</ele>
        <time>2012-03-27T15:01:42Z</time>
      </trkpt>
      <trkpt lat="43.43026" lon="-0.44222">
        <ele>172.21</ele>
        <time>2012-03-27T15:01:52Z</time>
      </trkpt>
      <trkpt lat="43.4302" lon="-0.44231">
        <ele>172.21</ele>
        <time>2012-03-27T15:02:00Z</time>
      </trkpt>
      <trkpt lat="43.43013" lon="-0.44242">
        <ele>172.21</ele>
        <time>2012-03-27T15:02:09Z</time>
      </trkpt>
      <trkpt lat="43.43006" lon="-0.44253">
        <ele>171.73</ele>
        <time>2012-03-27T15:02:19Z</time>
      </trkpt>
      <trkpt lat="43.43" lon="-0.44264">
        <ele>171.73</ele>
        <time>2012-03-27T15:02:28Z</time>
      </trkpt>
      <trkpt lat="43.42992" lon="-0.44275">
        <ele>171.25</ele>
        <time>2012-03-27T15:02:37Z</time>
      </trkpt>
      <trkpt lat="43.42984" lon="-0.44285">
        <ele>170.77</ele>
        <time>2012-03-27T15:02:46Z</time>
      </trkpt>
      <trkpt lat="43.42979" lon="-0.44294">
        <ele>170.29</ele>
        <time>2012-03-27T15:02:54Z</time>
      </trkpt>
      <trkpt lat="43.42973" lon="-0.44306">
        <ele>169.81</ele>
        <time>2012-03-27T15:03:03Z</time>
      </trkpt>
      <trkpt lat="43.42965" lon="-0.44318">
        <ele>168.85</ele>
        <time>2012-03-27T15:03:13Z</time>
      </trkpt>
      <trkpt lat="43.42959" lon="-0.44328">
        <ele>167.89</ele>
        <time>2012-03-27T15:03:23Z</time>
      </trkpt>
      <trkpt lat="43.42954" lon="-0.44339">
        <ele>166.93</ele>
        <time>2012-03-27T15:03:33Z</time>
      </trkpt>
      <trkpt lat="43.42947" lon="-0.44347">
        <ele>165.96</ele>
        <time>2012-03-27T15:03:40Z</time>
      </trkpt>
      <trkpt lat="43.42941" lon="-0.44357">
        <ele>164.52</ele>
        <time>2012-03-27T15:03:49Z</time>
      </trkpt>
      <trkpt lat="43.42935" lon="-0.44368">
        <ele>163.56</ele>
        <time>2012-03-27T15:03:56Z</time>
      </trkpt>
      <trkpt lat="43.42928" lon="-0.44378">
        <ele>162.12</ele>
        <time>2012-03-27T15:04:04Z</time>
      </trkpt>
      <trkpt lat="43.42921" lon="-0.44387">
        <ele>161.16</ele>
        <time>2012-03-27T15:04:12Z</time>
      </trkpt>
      <trkpt lat="43.42913" lon="-0.44394">
        <ele>159.72</ele>
        <time>2012-03-27T15:04:20Z</time>
      </trkpt>
      <trkpt lat="43.4291" lon="-0.44406">
        <ele>158.75</ele>
        <time>2012-03-27T15:04:29Z</time>
      </trkpt>
      <trkpt lat="43.42902" lon="-0.44415">
        <ele>157.79</ele>
        <time>2012-03-27T15:04:38Z</time>
      </trkpt>
      <trkpt lat="43.42894" lon="-0.44423">
        <ele>157.79</ele>
        <time>2012-03-27T15:04:50Z</time>
      </trkpt>
      <trkpt lat="43.42887" lon="-0.44434">
        <ele>156.35</ele>
        <time>2012-03-27T15:06:23Z</time>
      </trkpt>
      <trkpt lat="43.4288" lon="-0.44446">
        <ele>155.87</ele>
        <time>2012-03-27T15:06:33Z</time>
      </trkpt>
      <trkpt lat="43.42873" lon="-0.44461">
        <ele>155.39</ele>
        <time>2012-03-27T15:06:42Z</time>
      </trkpt>
      <trkpt lat="43.42865" lon="-0.44472">
        <ele>155.87</ele>
        <time>2012-03-27T15:06:50Z</time>
      </trkpt>
      <trkpt lat="43.42858" lon="-0.44483">
        <ele>154.91</ele>
        <time>2012-03-27T15:06:59Z</time>
      </trkpt>
      <trkpt lat="43.4285" lon="-0.44493">
        <ele>154.91</ele>
        <time>2012-03-27T15:07:08Z</time>
      </trkpt>
      <trkpt lat="43.4284" lon="-0.44509">
        <ele>154.91</ele>
        <time>2012-03-27T15:07:18Z</time>
      </trkpt>
      <trkpt lat="43.42834" lon="-0.44524">
        <ele>154.91</ele>
        <time>2012-03-27T15:07:28Z</time>
      </trkpt>
      <trkpt lat="43.42823" lon="-0.44535">
        <ele>154.43</ele>
        <time>2012-03-27T15:07:38Z</time>
      </trkpt>
      <trkpt lat="43.42815" lon="-0.44542">
        <ele>154.43</ele>
        <time>2012-03-27T15:07:44Z</time>
      </trkpt>
      <trkpt lat="43.42804" lon="-0.44549">
        <ele>154.91</ele>
        <time>2012-03-27T15:07:53Z</time>
      </trkpt>
      <trkpt lat="43.42796" lon="-0.44551">
        <ele>154.91</ele>
        <time>2012-03-27T15:08:00Z</time>
      </trkpt>
      <trkpt lat="43.42786" lon="-0.44552">
        <ele>154.91</ele>
        <time>2012-03-27T15:08:07Z</time>
      </trkpt>
      <trkpt lat="43.42775" lon="-0.44556">
        <ele>154.91</ele>
        <time>2012-03-27T15:08:18Z</time>
      </trkpt>
      <trkpt lat="43.42766" lon="-0.44565">
        <ele>155.87</ele>
        <time>2012-03-27T15:08:27Z</time>
      </trkpt>
      <trkpt lat="43.42766" lon="-0.44579">
        <ele>155.87</ele>
        <time>2012-03-27T15:08:35Z</time>
      </trkpt>
      <trkpt lat="43.42763" lon="-0.44591">
        <ele>156.35</ele>
        <time>2012-03-27T15:08:57Z</time>
      </trkpt>
      <trkpt lat="43.42755" lon="-0.44602">
        <ele>155.39</ele>
        <time>2012-03-27T15:09:05Z</time>
      </trkpt>
      <trkpt lat="43.42746" lon="-0.44612">
        <ele>155.39</ele>
        <time>2012-03-27T15:09:13Z</time>
      </trkpt>
      <trkpt lat="43.42736" lon="-0.4462">
        <ele>155.39</ele>
        <time>2012-03-27T15:09:21Z</time>
      </trkpt>
      <trkpt lat="43.4273" lon="-0.4463">
        <ele>155.39</ele>
        <time>2012-03-27T15:09:29Z</time>
      </trkpt>
      <trkpt lat="43.4272" lon="-0.44637">
        <ele>155.39</ele>
        <time>2012-03-27T15:09:37Z</time>
      </trkpt>
      <trkpt lat="43.42714" lon="-0.44647">
        <ele>155.39</ele>
        <time>2012-03-27T15:09:46Z</time>
      </trkpt>
      <trkpt lat="43.42705" lon="-0.44652">
        <ele>155.87</ele>
        <time>2012-03-27T15:09:54Z</time>
      </trkpt>
      <trkpt lat="43.42697" lon="-0.44656">
        <ele>156.35</ele>
        <time>2012-03-27T15:10:03Z</time>
      </trkpt>
      <trkpt lat="43.42687" lon="-0.44658">
        <ele>154.91</ele>
        <time>2012-03-27T15:10:13Z</time>
      </trkpt>
      <trkpt lat="43.42676" lon="-0.4466">
        <ele>154.91</ele>
        <time>2012-03-27T15:10:22Z</time>
      </trkpt>
      <trkpt lat="43.42664" lon="-0.44661">
        <ele>155.39</ele>
        <time>2012-03-27T15:10:32Z</time>
      </trkpt>
      <trkpt lat="43.42652" lon="-0.44659">
        <ele>154.91</ele>
        <time>2012-03-27T15:10:41Z</time>
      </trkpt>
      <trkpt lat="43.4264" lon="-0.44659">
        <ele>155.87</ele>
        <time>2012-03-27T15:10:50Z</time>
      </trkpt>
      <trkpt lat="43.4263" lon="-0.44662">
        <ele>156.35</ele>
        <time>2012-03-27T15:10:58Z</time>
      </trkpt>
      <trkpt lat="43.42621" lon="-0.4467">
        <ele>156.35</ele>
        <time>2012-03-27T15:11:08Z</time>
      </trkpt>
      <trkpt lat="43.42612" lon="-0.4468">
        <ele>156.83</ele>
        <time>2012-03-27T15:11:18Z</time>
      </trkpt>
      <trkpt lat="43.42603" lon="-0.44691">
        <ele>156.35</ele>
        <time>2012-03-27T15:11:28Z</time>
      </trkpt>
      <trkpt lat="43.42594" lon="-0.44702">
        <ele>156.83</ele>
        <time>2012-03-27T15:11:36Z</time>
      </trkpt>
      <trkpt lat="43.42588" lon="-0.44716">
        <ele>156.83</ele>
        <time>2012-03-27T15:11:45Z</time>
      </trkpt>
      <trkpt lat="43.42582" lon="-0.4473">
        <ele>156.83</ele>
        <time>2012-03-27T15:11:54Z</time>
      </trkpt>
      <trkpt lat="43.42581" lon="-0.44743">
        <ele>157.31</ele>
        <time>2012-03-27T15:12:03Z</time>
      </trkpt>
      <trkpt lat="43.4258" lon="-0.44758">
        <ele>158.27</ele>
        <time>2012-03-27T15:12:13Z</time>
      </trkpt>
      <trkpt lat="43.42577" lon="-0.44773">
        <ele>158.75</ele>
        <time>2012-03-27T15:12:23Z</time>
      </trkpt>
      <trkpt lat="43.42573" lon="-0.44787">
        <ele>159.24</ele>
        <time>2012-03-27T15:12:33Z</time>
      </trkpt>
      <trkpt lat="43.42564" lon="-0.44799">
        <ele>159.72</ele>
        <time>2012-03-27T15:12:43Z</time>
      </trkpt>
      <trkpt lat="43.42555" lon="-0.44812">
        <ele>160.2</ele>
        <time>2012-03-27T15:12:53Z</time>
      </trkpt>
      <trkpt lat="43.42547" lon="-0.44825">
        <ele>161.16</ele>
        <time>2012-03-27T15:13:02Z</time>
      </trkpt>
      <trkpt lat="43.42538" lon="-0.44838">
        <ele>161.64</ele>
        <time>2012-03-27T15:13:11Z</time>
      </trkpt>
      <trkpt lat="43.4253" lon="-0.44848">
        <ele>162.12</ele>
        <time>2012-03-27T15:13:18Z</time>
      </trkpt>
      <trkpt lat="43.42522" lon="-0.44857">
        <ele>162.6</ele>
        <time>2012-03-27T15:13:26Z</time>
      </trkpt>
      <trkpt lat="43.42516" lon="-0.44865">
        <ele>162.12</ele>
        <time>2012-03-27T15:13:33Z</time>
      </trkpt>
      <trkpt lat="43.42508" lon="-0.44873">
        <ele>162.6</ele>
        <time>2012-03-27T15:13:41Z</time>
      </trkpt>
      <trkpt lat="43.42501" lon="-0.44882">
        <ele>163.56</ele>
        <time>2012-03-27T15:13:49Z</time>
      </trkpt>
      <trkpt lat="43.42495" lon="-0.44891">
        <ele>164.04</ele>
        <time>2012-03-27T15:13:57Z</time>
      </trkpt>
      <trkpt lat="43.42486" lon="-0.44899">
        <ele>165</ele>
        <time>2012-03-27T15:14:05Z</time>
      </trkpt>
      <trkpt lat="43.42477" lon="-0.44905">
        <ele>165.48</ele>
        <time>2012-03-27T15:14:13Z</time>
      </trkpt>
      <trkpt lat="43.42468" lon="-0.4491">
        <ele>165.96</ele>
        <time>2012-03-27T15:14:21Z</time>
      </trkpt>
      <trkpt lat="43.4246" lon="-0.44918">
        <ele>166.45</ele>
        <time>2012-03-27T15:14:29Z</time>
      </trkpt>
      <trkpt lat="43.42453" lon="-0.44927">
        <ele>166.93</ele>
        <time>2012-03-27T15:14:37Z</time>
      </trkpt>
      <trkpt lat="43.42446" lon="-0.44939">
        <ele>167.41</ele>
        <time>2012-03-27T15:14:46Z</time>
      </trkpt>
      <trkpt lat="43.42441" lon="-0.44952">
        <ele>167.89</ele>
        <time>2012-03-27T15:14:54Z</time>
      </trkpt>
      <trkpt lat="43.42436" lon="-0.44966">
        <ele>168.37</ele>
        <time>2012-03-27T15:15:03Z</time>
      </trkpt>
      <trkpt lat="43.4243" lon="-0.44979">
        <ele>168.37</ele>
        <time>2012-03-27T15:15:12Z</time>
      </trkpt>
      <trkpt lat="43.42425" lon="-0.44991">
        <ele>168.85</ele>
        <time>2012-03-27T15:15:21Z</time>
      </trkpt>
      <trkpt lat="43.4242" lon="-0.45003">
        <ele>169.81</ele>
        <time>2012-03-27T15:15:31Z</time>
      </trkpt>
      <trkpt lat="43.42419" lon="-0.45006">
        <ele>171.73</ele>
        <time>2012-03-27T15:17:37Z</time>
      </trkpt>
      <trkpt lat="43.42427" lon="-0.45018">
        <ele>172.21</ele>
        <time>2012-03-27T15:17:55Z</time>
      </trkpt>
      <trkpt lat="43.42421" lon="-0.45025">
        <ele>172.21</ele>
        <time>2012-03-27T15:18:05Z</time>
      </trkpt>
      <trkpt lat="43.4241" lon="-0.45034">
        <ele>171.73</ele>
        <time>2012-03-27T15:18:14Z</time>
      </trkpt>
      <trkpt lat="43.42401" lon="-0.45042">
        <ele>172.21</ele>
        <time>2012-03-27T15:18:23Z</time>
      </trkpt>
      <trkpt lat="43.42392" lon="-0.4505">
        <ele>172.69</ele>
        <time>2012-03-27T15:18:32Z</time>
      </trkpt>
      <trkpt lat="43.42384" lon="-0.45057">
        <ele>172.21</ele>
        <time>2012-03-27T15:18:41Z</time>
      </trkpt>
      <trkpt lat="43.42374" lon="-0.45066">
        <ele>172.69</ele>
        <time>2012-03-27T15:18:50Z</time>
      </trkpt>
      <trkpt lat="43.42365" lon="-0.45074">
        <ele>173.17</ele>
        <time>2012-03-27T15:19:01Z</time>
      </trkpt>
      <trkpt lat="43.42355" lon="-0.45083">
        <ele>173.17</ele>
        <time>2012-03-27T15:19:11Z</time>
      </trkpt>
      <trkpt lat="43.42346" lon="-0.45092">
        <ele>172.69</ele>
        <time>2012-03-27T15:19:20Z</time>
      </trkpt>
      <trkpt lat="43.42337" lon="-0.451">
        <ele>172.69</ele>
        <time>2012-03-27T15:19:28Z</time>
      </trkpt>
      <trkpt lat="43.4233" lon="-0.4511">
        <ele>172.69</ele>
        <time>2012-03-27T15:19:36Z</time>
      </trkpt>
      <trkpt lat="43.42321" lon="-0.45119">
        <ele>172.69</ele>
        <time>2012-03-27T15:19:45Z</time>
      </trkpt>
      <trkpt lat="43.42311" lon="-0.45126">
        <ele>173.17</ele>
        <time>2012-03-27T15:19:54Z</time>
      </trkpt>
      <trkpt lat="43.42302" lon="-0.45136">
        <ele>173.17</ele>
        <time>2012-03-27T15:20:03Z</time>
      </trkpt>
      <trkpt lat="43.42294" lon="-0.45144">
        <ele>172.69</ele>
        <time>2012-03-27T15:20:13Z</time>
      </trkpt>
      <trkpt lat="43.42282" lon="-0.45154">
        <ele>173.66</ele>
        <time>2012-03-27T15:20:23Z</time>
      </trkpt>
      <trkpt lat="43.42272" lon="-0.45162">
        <ele>173.17</ele>
        <time>2012-03-27T15:20:31Z</time>
      </trkpt>
      <trkpt lat="43.42264" lon="-0.45171">
        <ele>173.66</ele>
        <time>2012-03-27T15:20:40Z</time>
      </trkpt>
      <trkpt lat="43.42255" lon="-0.4518">
        <ele>174.14</ele>
        <time>2012-03-27T15:20:49Z</time>
      </trkpt>
      <trkpt lat="43.42244" lon="-0.4519">
        <ele>173.66</ele>
        <time>2012-03-27T15:20:59Z</time>
      </trkpt>
      <trkpt lat="43.42236" lon="-0.45198">
        <ele>174.14</ele>
        <time>2012-03-27T15:21:07Z</time>
      </trkpt>
      <trkpt lat="43.42226" lon="-0.45208">
        <ele>173.66</ele>
        <time>2012-03-27T15:21:17Z</time>
      </trkpt>
      <trkpt lat="43.42217" lon="-0.45218">
        <ele>174.14</ele>
        <time>2012-03-27T15:21:25Z</time>
      </trkpt>
      <trkpt lat="43.4221" lon="-0.45225">
        <ele>173.66</ele>
        <time>2012-03-27T15:21:33Z</time>
      </trkpt>
      <trkpt lat="43.42201" lon="-0.45235">
        <ele>174.14</ele>
        <time>2012-03-27T15:21:41Z</time>
      </trkpt>
      <trkpt lat="43.42191" lon="-0.45243">
        <ele>174.14</ele>
        <time>2012-03-27T15:21:49Z</time>
      </trkpt>
      <trkpt lat="43.42184" lon="-0.4525">
        <ele>174.14</ele>
        <time>2012-03-27T15:21:56Z</time>
      </trkpt>
      <trkpt lat="43.42176" lon="-0.4526">
        <ele>174.14</ele>
        <time>2012-03-27T15:22:04Z</time>
      </trkpt>
      <trkpt lat="43.42167" lon="-0.45267">
        <ele>173.66</ele>
        <time>2012-03-27T15:22:13Z</time>
      </trkpt>
      <trkpt lat="43.42158" lon="-0.45275">
        <ele>173.66</ele>
        <time>2012-03-27T15:22:22Z</time>
      </trkpt>
      <trkpt lat="43.42149" lon="-0.45284">
        <ele>173.66</ele>
        <time>2012-03-27T15:22:31Z</time>
      </trkpt>
      <trkpt lat="43.42139" lon="-0.45293">
        <ele>173.17</ele>
        <time>2012-03-27T15:22:40Z</time>
      </trkpt>
      <trkpt lat="43.42131" lon="-0.45299">
        <ele>173.17</ele>
        <time>2012-03-27T15:22:50Z</time>
      </trkpt>
      <trkpt lat="43.42119" lon="-0.45308">
        <ele>173.17</ele>
        <time>2012-03-27T15:22:58Z</time>
      </trkpt>
      <trkpt lat="43.42111" lon="-0.45316">
        <ele>173.17</ele>
        <time>2012-03-27T15:23:06Z</time>
      </trkpt>
      <trkpt lat="43.42104" lon="-0.45324">
        <ele>173.17</ele>
        <time>2012-03-27T15:23:16Z</time>
      </trkpt>
      <trkpt lat="43.42095" lon="-0.4533">
        <ele>172.21</ele>
        <time>2012-03-27T15:23:24Z</time>
      </trkpt>
      <trkpt lat="43.42085" lon="-0.45338">
        <ele>173.17</ele>
        <time>2012-03-27T15:23:33Z</time>
      </trkpt>
      <trkpt lat="43.42075" lon="-0.45348">
        <ele>172.69</ele>
        <time>2012-03-27T15:23:43Z</time>
      </trkpt>
      <trkpt lat="43.42065" lon="-0.45355">
        <ele>172.69</ele>
        <time>2012-03-27T15:23:52Z</time>
      </trkpt>
      <trkpt lat="43.42054" lon="-0.45365">
        <ele>172.21</ele>
        <time>2012-03-27T15:24:01Z</time>
      </trkpt>
      <trkpt lat="43.42047" lon="-0.45375">
        <ele>172.21</ele>
        <time>2012-03-27T15:24:10Z</time>
      </trkpt>
      <trkpt lat="43.42039" lon="-0.45384">
        <ele>172.21</ele>
        <time>2012-03-27T15:24:19Z</time>
      </trkpt>
      <trkpt lat="43.42032" lon="-0.45392">
        <ele>172.21</ele>
        <time>2012-03-27T15:24:29Z</time>
      </trkpt>
      <trkpt lat="43.42031" lon="-0.45405">
        <ele>172.21</ele>
        <time>2012-03-27T15:24:50Z</time>
      </trkpt>
      <trkpt lat="43.42028" lon="-0.45416">
        <ele>171.73</ele>
        <time>2012-03-27T15:25:00Z</time>
      </trkpt>
      <trkpt lat="43.42023" lon="-0.45428">
        <ele>172.21</ele>
        <time>2012-03-27T15:25:13Z</time>
      </trkpt>
      <trkpt lat="43.42019" lon="-0.45439">
        <ele>171.73</ele>
        <time>2012-03-27T15:25:26Z</time>
      </trkpt>
      <trkpt lat="43.42013" lon="-0.45452">
        <ele>172.21</ele>
        <time>2012-03-27T15:25:36Z</time>
      </trkpt>
      <trkpt lat="43.42007" lon="-0.45464">
        <ele>171.73</ele>
        <time>2012-03-27T15:25:45Z</time>
      </trkpt>
      <trkpt lat="43.42003" lon="-0.45476">
        <ele>171.73</ele>
        <time>2012-03-27T15:25:55Z</time>
      </trkpt>
      <trkpt lat="43.41998" lon="-0.45485">
        <ele>171.73</ele>
        <time>2012-03-27T15:26:06Z</time>
      </trkpt>
      <trkpt lat="43.41993" lon="-0.45497">
        <ele>171.73</ele>
        <time>2012-03-27T15:26:16Z</time>
      </trkpt>
      <trkpt lat="43.41988" lon="-0.4551">
        <ele>171.73</ele>
        <time>2012-03-27T15:26:26Z</time>
      </trkpt>
      <trkpt lat="43.41983" lon="-0.45522">
        <ele>171.25</ele>
        <time>2012-03-27T15:26:36Z</time>
      </trkpt>
      <trkpt lat="43.41976" lon="-0.45534">
        <ele>171.73</ele>
        <time>2012-03-27T15:26:46Z</time>
      </trkpt>
      <trkpt lat="43.41972" lon="-0.45545">
        <ele>171.25</ele>
        <time>2012-03-27T15:26:56Z</time>
      </trkpt>
      <trkpt lat="43.41967" lon="-0.45559">
        <ele>171.25</ele>
        <time>2012-03-27T15:27:06Z</time>
      </trkpt>
      <trkpt lat="43.41961" lon="-0.45572">
        <ele>171.25</ele>
        <time>2012-03-27T15:27:16Z</time>
      </trkpt>
      <trkpt lat="43.41957" lon="-0.45583">
        <ele>171.25</ele>
        <time>2012-03-27T15:27:26Z</time>
      </trkpt>
      <trkpt lat="43.41951" lon="-0.45596">
        <ele>170.77</ele>
        <time>2012-03-27T15:27:36Z</time>
      </trkpt>
      <trkpt lat="43.41946" lon="-0.45608">
        <ele>170.77</ele>
        <time>2012-03-27T15:27:45Z</time>
      </trkpt>
      <trkpt lat="43.4194" lon="-0.45621">
        <ele>170.77</ele>
        <time>2012-03-27T15:27:54Z</time>
      </trkpt>
      <trkpt lat="43.41933" lon="-0.45633">
        <ele>170.77</ele>
        <time>2012-03-27T15:28:03Z</time>
      </trkpt>
      <trkpt lat="43.41929" lon="-0.45645">
        <ele>170.29</ele>
        <time>2012-03-27T15:28:12Z</time>
      </trkpt>
      <trkpt lat="43.41922" lon="-0.45657">
        <ele>170.29</ele>
        <time>2012-03-27T15:28:21Z</time>
      </trkpt>
      <trkpt lat="43.41917" lon="-0.45668">
        <ele>170.77</ele>
        <time>2012-03-27T15:28:31Z</time>
      </trkpt>
      <trkpt lat="43.41912" lon="-0.45682">
        <ele>170.77</ele>
        <time>2012-03-27T15:28:41Z</time>
      </trkpt>
      <trkpt lat="43.41909" lon="-0.45695">
        <ele>170.77</ele>
        <time>2012-03-27T15:28:51Z</time>
      </trkpt>
      <trkpt lat="43.41913" lon="-0.45711">
        <ele>169.81</ele>
        <time>2012-03-27T15:29:00Z</time>
      </trkpt>
      <trkpt lat="43.41917" lon="-0.45721">
        <ele>169.33</ele>
        <time>2012-03-27T15:29:10Z</time>
      </trkpt>
      <trkpt lat="43.41933" lon="-0.45731">
        <ele>166.93</ele>
        <time>2012-03-27T15:29:39Z</time>
      </trkpt>
      <trkpt lat="43.41943" lon="-0.45737">
        <ele>166.93</ele>
        <time>2012-03-27T15:29:47Z</time>
      </trkpt>
      <trkpt lat="43.41951" lon="-0.45742">
        <ele>165.96</ele>
        <time>2012-03-27T15:29:57Z</time>
      </trkpt>
      <trkpt lat="43.41959" lon="-0.45747">
        <ele>165</ele>
        <time>2012-03-27T15:30:05Z</time>
      </trkpt>
      <trkpt lat="43.41967" lon="-0.45753">
        <ele>164.04</ele>
        <time>2012-03-27T15:30:25Z</time>
      </trkpt>
      <trkpt lat="43.41977" lon="-0.45757">
        <ele>163.56</ele>
        <time>2012-03-27T15:30:32Z</time>
      </trkpt>
      <trkpt lat="43.41989" lon="-0.45751">
        <ele>164.52</ele>
        <time>2012-03-27T15:30:40Z</time>
      </trkpt>
      <trkpt lat="43.42" lon="-0.4574">
        <ele>164.52</ele>
        <time>2012-03-27T15:30:50Z</time>
      </trkpt>
      <trkpt lat="43.42008" lon="-0.4573">
        <ele>165.96</ele>
        <time>2012-03-27T15:31:00Z</time>
      </trkpt>
      <trkpt lat="43.42014" lon="-0.45736">
        <ele>165.48</ele>
        <time>2012-03-27T15:31:10Z</time>
      </trkpt>
      <trkpt lat="43.42013" lon="-0.45749">
        <ele>165</ele>
        <time>2012-03-27T15:31:21Z</time>
      </trkpt>
      <trkpt lat="43.42007" lon="-0.45758">
        <ele>164.04</ele>
        <time>2012-03-27T15:31:31Z</time>
      </trkpt>
      <trkpt lat="43.41997" lon="-0.45763">
        <ele>164.04</ele>
        <time>2012-03-27T15:31:40Z</time>
      </trkpt>
      <trkpt lat="43.41988" lon="-0.45772">
        <ele>164.52</ele>
        <time>2012-03-27T15:31:50Z</time>
      </trkpt>
      <trkpt lat="43.4198" lon="-0.45783">
        <ele>164.04</ele>
        <time>2012-03-27T15:32:00Z</time>
      </trkpt>
      <trkpt lat="43.41973" lon="-0.45792">
        <ele>164.04</ele>
        <time>2012-03-27T15:32:09Z</time>
      </trkpt>
      <trkpt lat="43.41967" lon="-0.45802">
        <ele>164.04</ele>
        <time>2012-03-27T15:32:17Z</time>
      </trkpt>
      <trkpt lat="43.41961" lon="-0.45814">
        <ele>164.52</ele>
        <time>2012-03-27T15:32:27Z</time>
      </trkpt>
      <trkpt lat="43.41957" lon="-0.45825">
        <ele>164.04</ele>
        <time>2012-03-27T15:32:40Z</time>
      </trkpt>
      <trkpt lat="43.41953" lon="-0.45822">
        <ele>164.04</ele>
        <time>2012-03-27T15:33:03Z</time>
      </trkpt>
      <trkpt lat="43.41952" lon="-0.45839">
        <ele>164.52</ele>
        <time>2012-03-27T15:33:13Z</time>
      </trkpt>
      <trkpt lat="43.41946" lon="-0.45849">
        <ele>163.56</ele>
        <time>2012-03-27T15:34:45Z</time>
      </trkpt>
      <trkpt lat="43.4194" lon="-0.4586">
        <ele>163.56</ele>
        <time>2012-03-27T15:34:56Z</time>
      </trkpt>
      <trkpt lat="43.41942" lon="-0.45862">
        <ele>163.56</ele>
        <time>2012-03-27T15:35:21Z</time>
      </trkpt>
      <trkpt lat="43.41935" lon="-0.45873">
        <ele>163.56</ele>
        <time>2012-03-27T15:35:29Z</time>
      </trkpt>
      <trkpt lat="43.41929" lon="-0.45882">
        <ele>163.08</ele>
        <time>2012-03-27T15:35:38Z</time>
      </trkpt>
      <trkpt lat="43.41924" lon="-0.45897">
        <ele>163.08</ele>
        <time>2012-03-27T15:35:48Z</time>
      </trkpt>
      <trkpt lat="43.41917" lon="-0.45909">
        <ele>162.6</ele>
        <time>2012-03-27T15:35:57Z</time>
      </trkpt>
      <trkpt lat="43.41911" lon="-0.45923">
        <ele>163.08</ele>
        <time>2012-03-27T15:36:07Z</time>
      </trkpt>
      <trkpt lat="43.41904" lon="-0.45935">
        <ele>163.08</ele>
        <time>2012-03-27T15:36:17Z</time>
      </trkpt>
      <trkpt lat="43.41899" lon="-0.45947">
        <ele>163.56</ele>
        <time>2012-03-27T15:36:25Z</time>
      </trkpt>
      <trkpt lat="43.41896" lon="-0.4596">
        <ele>163.08</ele>
        <time>2012-03-27T15:36:33Z</time>
      </trkpt>
      <trkpt lat="43.41891" lon="-0.4597">
        <ele>163.08</ele>
        <time>2012-03-27T15:36:41Z</time>
      </trkpt>
      <trkpt lat="43.41897" lon="-0.45978">
        <ele>162.6</ele>
        <time>2012-03-27T15:36:50Z</time>
      </trkpt>
      <trkpt lat="43.41904" lon="-0.45986">
        <ele>162.12</ele>
        <time>2012-03-27T15:36:58Z</time>
      </trkpt>
      <trkpt lat="43.41914" lon="-0.45992">
        <ele>162.12</ele>
        <time>2012-03-27T15:37:07Z</time>
      </trkpt>
      <trkpt lat="43.41921" lon="-0.45995">
        <ele>161.64</ele>
        <time>2012-03-27T15:38:14Z</time>
      </trkpt>
    </trkseg>
  </trk>
</gpx>